DLH446 EDDF-KDEN
Flight info
| Callsign | DLH446 |
|---|---|
| Flight time | 9h 26m |
| Altitude | 24000 |
| Route | MARUN7F/25C MARUN Y152 ARPEG/N0486F380 Z850 ABILU DCT RKN DCT RENEQ DCT BALIX/M084F380 DCT 6130N02000W/M084F400 64N030W 6530N04000W 66N050W DCT AVPUT/N0494F400 DCT DUTUM DCT 5930N08000W 55N090W DCT HML DCT KP06A DCT KD81Y DCT NYTRO AALLE4 |
| Aircraft | A359/H-SDE2E3GHIJ3J4J5LM1ORWXY/LB1D1 |
Departure
| Time | 2026-05-07 12:30 |
|---|---|
| Airport | Frankfurt Main Airport (EDDF) |
Arrival
| Time | 2026-05-07 21:56 |
|---|---|
| Airport | Denver International Airport (KDEN) |
| Time | Latitude | Longitude | Altitude | Speed | Heading |
|---|---|---|---|---|---|
| 2026-05-07 10:55 | 50.04540 | 8.56755 | 362 ft | 0 kts | 294° |
| 2026-05-07 10:58 | 50.04540 | 8.56756 | 362 ft | 0 kts | 294° |
| 2026-05-07 11:29 | 50.04540 | 8.56757 | 362 ft | 0 kts | 294° |
| 2026-05-07 12:05 | 50.04540 | 8.56758 | 335 ft | 0 kts | 294° |
| 2026-05-07 12:16 | 50.04534 | 8.56780 | 364 ft | 3 kts | 289° |
| 2026-05-07 12:17 | 50.04528 | 8.56810 | 368 ft | 3 kts | 278° |
| 2026-05-07 12:17 | 50.04527 | 8.56840 | 367 ft | 3 kts | 265° |
| 2026-05-07 12:17 | 50.04531 | 8.56869 | 369 ft | 3 kts | 238° |
| 2026-05-07 12:17 | 50.04541 | 8.56887 | 366 ft | 1 kts | 197° |
| 2026-05-07 12:18 | 50.04543 | 8.56888 | 369 ft | 0 kts | 193° |
| 2026-05-07 12:22 | 50.04532 | 8.56884 | 367 ft | 7 kts | 193° |
| 2026-05-07 12:22 | 50.04481 | 8.56865 | 367 ft | 8 kts | 193° |
| 2026-05-07 12:22 | 50.04423 | 8.56848 | 371 ft | 8 kts | 189° |
| 2026-05-07 12:23 | 50.04365 | 8.56833 | 370 ft | 8 kts | 190° |
| 2026-05-07 12:23 | 50.04306 | 8.56827 | 370 ft | 8 kts | 167° |
| 2026-05-07 12:23 | 50.04287 | 8.56868 | 371 ft | 5 kts | 113° |
| 2026-05-07 12:23 | 50.04286 | 8.56938 | 369 ft | 8 kts | 78° |
| 2026-05-07 12:24 | 50.04307 | 8.57030 | 370 ft | 9 kts | 70° |
| 2026-05-07 12:24 | 50.04329 | 8.57127 | 371 ft | 10 kts | 69° |
| 2026-05-07 12:24 | 50.04356 | 8.57237 | 373 ft | 11 kts | 70° |
| 2026-05-07 12:24 | 50.04385 | 8.57361 | 372 ft | 13 kts | 69° |
| 2026-05-07 12:25 | 50.04419 | 8.57501 | 370 ft | 15 kts | 70° |
| 2026-05-07 12:25 | 50.04453 | 8.57646 | 374 ft | 14 kts | 69° |
| 2026-05-07 12:25 | 50.04489 | 8.57794 | 372 ft | 16 kts | 70° |
| 2026-05-07 12:25 | 50.04529 | 8.57960 | 376 ft | 16 kts | 70° |
| 2026-05-07 12:26 | 50.04570 | 8.58134 | 371 ft | 18 kts | 70° |
| 2026-05-07 12:26 | 50.04606 | 8.58284 | 378 ft | 12 kts | 69° |
| 2026-05-07 12:26 | 50.04635 | 8.58405 | 376 ft | 12 kts | 69° |
| 2026-05-07 12:26 | 50.04654 | 8.58518 | 375 ft | 8 kts | 97° |
| 2026-05-07 12:27 | 50.04621 | 8.58569 | 375 ft | 6 kts | 153° |
| 2026-05-07 12:27 | 50.04582 | 8.58595 | 376 ft | 6 kts | 158° |
| 2026-05-07 12:27 | 50.04540 | 8.58620 | 377 ft | 6 kts | 159° |
| 2026-05-07 12:27 | 50.04505 | 8.58619 | 377 ft | 4 kts | 216° |
| 2026-05-07 12:28 | 50.04485 | 8.58575 | 376 ft | 6 kts | 241° |
| 2026-05-07 12:28 | 50.04474 | 8.58534 | 376 ft | 0 kts | 250° |
| 2026-05-07 12:29 | 50.04429 | 8.58345 | 375 ft | 47 kts | 249° |
| 2026-05-07 12:29 | 50.04239 | 8.57550 | 373 ft | 108 kts | 250° |
| 2026-05-07 12:29 | 50.03916 | 8.56198 | 362 ft | 159 kts | 250° |
| 2026-05-07 12:29 | 50.03512 | 8.54493 | 894 ft | 161 kts | 250° |
| 2026-05-07 12:30 | 50.03150 | 8.53000 | 1838 ft | 145 kts | 251° |
| 2026-05-07 12:30 | 50.02758 | 8.51474 | 2274 ft | 156 kts | 251° |
| 2026-05-07 12:30 | 50.02545 | 8.49797 | 2734 ft | 163 kts | 271° |
| 2026-05-07 12:30 | 50.02646 | 8.48039 | 3243 ft | 168 kts | 281° |
| 2026-05-07 12:31 | 50.02882 | 8.46226 | 3690 ft | 176 kts | 284° |
| 2026-05-07 12:31 | 50.03169 | 8.44335 | 4085 ft | 183 kts | 284° |
| 2026-05-07 12:31 | 50.03473 | 8.42383 | 4544 ft | 187 kts | 288° |
| 2026-05-07 12:31 | 50.04218 | 8.40751 | 5023 ft | 188 kts | 322° |
| 2026-05-07 12:32 | 50.05299 | 8.39589 | 5516 ft | 192 kts | 324° |
| 2026-05-07 12:32 | 50.06403 | 8.38359 | 5871 ft | 202 kts | 323° |
| 2026-05-07 12:32 | 50.07581 | 8.37015 | 6152 ft | 217 kts | 323° |
| 2026-05-07 12:32 | 50.08825 | 8.35573 | 6446 ft | 232 kts | 323° |
| 2026-05-07 12:33 | 50.11828 | 8.32980 | 7162 ft | 260 kts | 349° |
| 2026-05-07 12:33 | 50.13650 | 8.33109 | 7741 ft | 267 kts | 12° |
| 2026-05-07 12:33 | 50.15453 | 8.33933 | 8331 ft | 272 kts | 16° |
| 2026-05-07 12:34 | 50.17268 | 8.34837 | 8933 ft | 276 kts | 15° |
| 2026-05-07 12:34 | 50.19116 | 8.35738 | 9559 ft | 280 kts | 15° |
| 2026-05-07 12:34 | 50.20992 | 8.36642 | 10179 ft | 283 kts | 15° |
| 2026-05-07 12:34 | 50.22925 | 8.37565 | 10501 ft | 297 kts | 15° |
| 2026-05-07 12:35 | 50.24932 | 8.38517 | 10787 ft | 312 kts | 15° |
| 2026-05-07 12:35 | 50.27056 | 8.39525 | 11086 ft | 325 kts | 15° |
| 2026-05-07 12:35 | 50.29258 | 8.40569 | 11397 ft | 337 kts | 15° |
| 2026-05-07 12:35 | 50.31516 | 8.41712 | 11822 ft | 344 kts | 18° |
| 2026-05-07 12:36 | 50.33786 | 8.42977 | 12333 ft | 348 kts | 18° |
| 2026-05-07 12:36 | 50.36080 | 8.44259 | 12856 ft | 352 kts | 18° |
| 2026-05-07 12:36 | 50.38417 | 8.45461 | 13350 ft | 354 kts | 13° |
| 2026-05-07 12:36 | 50.40856 | 8.45983 | 13868 ft | 355 kts | 359° |
| 2026-05-07 12:37 | 50.43329 | 8.45583 | 14339 ft | 357 kts | 347° |
| 2026-05-07 12:37 | 50.45734 | 8.44598 | 14788 ft | 359 kts | 342° |
| 2026-05-07 12:37 | 50.48107 | 8.43332 | 15256 ft | 362 kts | 339° |
| 2026-05-07 12:37 | 50.50482 | 8.41968 | 15733 ft | 364 kts | 339° |
| 2026-05-07 12:38 | 50.52868 | 8.40604 | 16204 ft | 367 kts | 340° |
| 2026-05-07 12:38 | 50.55284 | 8.39274 | 16675 ft | 370 kts | 340° |
| 2026-05-07 12:38 | 50.57736 | 8.37977 | 17140 ft | 372 kts | 341° |
| 2026-05-07 12:38 | 50.60203 | 8.36711 | 17612 ft | 375 kts | 342° |
| 2026-05-07 12:39 | 50.62671 | 8.35466 | 18055 ft | 378 kts | 342° |
| 2026-05-07 12:39 | 50.65194 | 8.34204 | 18487 ft | 381 kts | 342° |
| 2026-05-07 12:39 | 50.67725 | 8.32940 | 18898 ft | 383 kts | 342° |
| 2026-05-07 12:39 | 50.70276 | 8.31664 | 19296 ft | 386 kts | 342° |
| 2026-05-07 12:40 | 50.72843 | 8.30373 | 19687 ft | 388 kts | 342° |
| 2026-05-07 12:40 | 50.75430 | 8.29069 | 20075 ft | 391 kts | 342° |
| 2026-05-07 12:40 | 50.78037 | 8.27757 | 20460 ft | 393 kts | 342° |
| 2026-05-07 12:40 | 50.80651 | 8.26434 | 20852 ft | 396 kts | 342° |
| 2026-05-07 12:41 | 50.83275 | 8.25101 | 21009 ft | 396 kts | 342° |
| 2026-05-07 12:41 | 50.85911 | 8.23760 | 21027 ft | 397 kts | 341° |
| 2026-05-07 12:41 | 50.88549 | 8.22418 | 21026 ft | 399 kts | 342° |
| 2026-05-07 12:41 | 50.91193 | 8.21072 | 21027 ft | 399 kts | 341° |
| 2026-05-07 12:42 | 50.93802 | 8.19743 | 21026 ft | 399 kts | 341° |
| 2026-05-07 12:42 | 50.96452 | 8.18390 | 21028 ft | 400 kts | 341° |
| 2026-05-07 12:42 | 50.99104 | 8.17035 | 21091 ft | 401 kts | 341° |
| 2026-05-07 12:42 | 51.01781 | 8.15672 | 21453 ft | 403 kts | 341° |
| 2026-05-07 12:43 | 51.04461 | 8.14303 | 21876 ft | 405 kts | 341° |
| 2026-05-07 12:43 | 51.07126 | 8.12934 | 22279 ft | 407 kts | 341° |
| 2026-05-07 12:43 | 51.09766 | 8.11176 | 22639 ft | 409 kts | 331° |
| 2026-05-07 12:43 | 51.12187 | 8.08798 | 23015 ft | 410 kts | 325° |
| 2026-05-07 12:44 | 51.14471 | 8.06169 | 23384 ft | 413 kts | 322° |
| 2026-05-07 12:44 | 51.16766 | 8.03291 | 23743 ft | 415 kts | 320° |
| 2026-05-07 12:44 | 51.19008 | 8.00369 | 24057 ft | 417 kts | 320° |
| 2026-05-07 12:44 | 51.21243 | 7.97425 | 24365 ft | 419 kts | 320° |
| 2026-05-07 12:45 | 51.23500 | 7.94462 | 24701 ft | 421 kts | 320° |
| 2026-05-07 12:45 | 51.25747 | 7.91533 | 25020 ft | 423 kts | 320° |
| 2026-05-07 12:45 | 51.28040 | 7.88563 | 25343 ft | 425 kts | 320° |
| 2026-05-07 12:45 | 51.30342 | 7.85596 | 25660 ft | 427 kts | 320° |
| 2026-05-07 12:46 | 51.32661 | 7.82612 | 25998 ft | 429 kts | 320° |
| 2026-05-07 12:46 | 51.34994 | 7.79612 | 26346 ft | 430 kts | 320° |
| 2026-05-07 12:46 | 51.37333 | 7.76605 | 26681 ft | 433 kts | 320° |
| 2026-05-07 12:46 | 51.39685 | 7.73572 | 27027 ft | 435 kts | 320° |
| 2026-05-07 12:47 | 51.42042 | 7.70529 | 27388 ft | 437 kts | 320° |
| 2026-05-07 12:47 | 51.44414 | 7.67460 | 27738 ft | 439 kts | 320° |
| 2026-05-07 12:47 | 51.46802 | 7.64366 | 28104 ft | 441 kts | 320° |
| 2026-05-07 12:47 | 51.49199 | 7.61256 | 28472 ft | 444 kts | 320° |
| 2026-05-07 12:48 | 51.51599 | 7.58137 | 28843 ft | 446 kts | 320° |
| 2026-05-07 12:48 | 51.54019 | 7.54988 | 29214 ft | 448 kts | 320° |
| 2026-05-07 12:48 | 51.56445 | 7.51827 | 29566 ft | 450 kts | 320° |
| 2026-05-07 12:48 | 51.58060 | 7.49721 | 29796 ft | 452 kts | 320° |
| 2026-05-07 12:49 | 51.60509 | 7.46523 | 30135 ft | 455 kts | 320° |
| 2026-05-07 12:49 | 51.62974 | 7.43300 | 30439 ft | 456 kts | 320° |
| 2026-05-07 12:49 | 51.65438 | 7.40071 | 30778 ft | 458 kts | 320° |
| 2026-05-07 12:49 | 51.67908 | 7.36831 | 31101 ft | 460 kts | 320° |
| 2026-05-07 12:50 | 51.70401 | 7.33557 | 31406 ft | 462 kts | 320° |
| 2026-05-07 12:50 | 51.72890 | 7.30282 | 31719 ft | 463 kts | 320° |
| 2026-05-07 12:50 | 51.75396 | 7.26980 | 32002 ft | 465 kts | 320° |
| 2026-05-07 12:50 | 51.77910 | 7.23662 | 32260 ft | 467 kts | 320° |
| 2026-05-07 12:51 | 51.80401 | 7.20370 | 32507 ft | 469 kts | 320° |
| 2026-05-07 12:51 | 51.82940 | 7.17011 | 32764 ft | 471 kts | 320° |
| 2026-05-07 12:51 | 51.85486 | 7.13638 | 32997 ft | 473 kts | 320° |
| 2026-05-07 12:51 | 51.88037 | 7.10251 | 33240 ft | 475 kts | 320° |
| 2026-05-07 12:52 | 51.90605 | 7.06838 | 33476 ft | 477 kts | 320° |
| 2026-05-07 12:52 | 51.93176 | 7.03416 | 33744 ft | 478 kts | 320° |
| 2026-05-07 12:52 | 51.95743 | 6.99994 | 34097 ft | 477 kts | 320° |
| 2026-05-07 12:52 | 51.98262 | 6.96630 | 34372 ft | 476 kts | 320° |
| 2026-05-07 12:53 | 52.00821 | 6.93204 | 34598 ft | 477 kts | 319° |
| 2026-05-07 12:53 | 52.03375 | 6.89759 | 34817 ft | 478 kts | 319° |
| 2026-05-07 12:53 | 52.05938 | 6.86313 | 35039 ft | 479 kts | 319° |
| 2026-05-07 12:53 | 52.08511 | 6.82863 | 35280 ft | 479 kts | 319° |
| 2026-05-07 12:54 | 52.11087 | 6.79406 | 35501 ft | 480 kts | 319° |
| 2026-05-07 12:54 | 52.13725 | 6.76079 | 35718 ft | 481 kts | 324° |
| 2026-05-07 12:54 | 52.16469 | 6.72952 | 35966 ft | 481 kts | 324° |
| 2026-05-07 12:54 | 52.19228 | 6.69865 | 36172 ft | 482 kts | 324° |
| 2026-05-07 12:55 | 52.22016 | 6.66776 | 36400 ft | 483 kts | 324° |
| 2026-05-07 12:55 | 52.24794 | 6.63708 | 36615 ft | 483 kts | 324° |
| 2026-05-07 12:55 | 52.27579 | 6.60633 | 36838 ft | 484 kts | 324° |
| 2026-05-07 12:55 | 52.30368 | 6.57549 | 37059 ft | 484 kts | 324° |
| 2026-05-07 12:56 | 52.33159 | 6.54453 | 37268 ft | 484 kts | 324° |
| 2026-05-07 12:56 | 52.35947 | 6.51353 | 37470 ft | 485 kts | 324° |
| 2026-05-07 12:56 | 52.38738 | 6.48242 | 37684 ft | 485 kts | 324° |
| 2026-05-07 12:56 | 52.41531 | 6.45122 | 37895 ft | 485 kts | 324° |
| 2026-05-07 12:57 | 52.44326 | 6.41996 | 38028 ft | 487 kts | 324° |
| 2026-05-07 12:57 | 52.47127 | 6.38856 | 38054 ft | 490 kts | 324° |
| 2026-05-07 12:57 | 52.52751 | 6.32539 | 38053 ft | 490 kts | 324° |
| 2026-05-07 12:58 | 52.58334 | 6.26249 | 38062 ft | 489 kts | 324° |
| 2026-05-07 12:58 | 52.63984 | 6.19866 | 38060 ft | 489 kts | 324° |
| 2026-05-07 12:59 | 52.69589 | 6.13510 | 38059 ft | 489 kts | 324° |
| 2026-05-07 12:59 | 52.75152 | 6.07182 | 38058 ft | 489 kts | 324° |
| 2026-05-07 13:00 | 52.80759 | 6.00784 | 38064 ft | 489 kts | 324° |
| 2026-05-07 13:00 | 52.86355 | 5.94380 | 38067 ft | 489 kts | 324° |
| 2026-05-07 13:01 | 52.91957 | 5.87947 | 38070 ft | 489 kts | 324° |
| 2026-05-07 13:01 | 52.97546 | 5.81506 | 38080 ft | 489 kts | 324° |
| 2026-05-07 13:02 | 53.03130 | 5.75052 | 38088 ft | 489 kts | 324° |
| 2026-05-07 13:02 | 53.08716 | 5.68579 | 38095 ft | 489 kts | 324° |
| 2026-05-07 13:03 | 53.14290 | 5.62095 | 38099 ft | 489 kts | 324° |
| 2026-05-07 13:03 | 53.19827 | 5.55635 | 38102 ft | 489 kts | 324° |
| 2026-05-07 13:04 | 53.25397 | 5.49113 | 38093 ft | 489 kts | 323° |
| 2026-05-07 13:04 | 53.30956 | 5.42584 | 38100 ft | 489 kts | 323° |
| 2026-05-07 13:05 | 53.36512 | 5.36034 | 38098 ft | 489 kts | 323° |
| 2026-05-07 13:05 | 53.42074 | 5.29459 | 38107 ft | 489 kts | 323° |
| 2026-05-07 13:06 | 53.47640 | 5.22859 | 38108 ft | 489 kts | 323° |
| 2026-05-07 13:06 | 53.53151 | 5.16300 | 38118 ft | 489 kts | 323° |
| 2026-05-07 13:07 | 53.58698 | 5.09678 | 38117 ft | 488 kts | 323° |
| 2026-05-07 13:07 | 53.64240 | 5.03041 | 38119 ft | 488 kts | 323° |
| 2026-05-07 13:08 | 53.69774 | 4.96392 | 38122 ft | 488 kts | 323° |
| 2026-05-07 13:08 | 53.75313 | 4.89714 | 38124 ft | 488 kts | 323° |
| 2026-05-07 13:09 | 53.80837 | 4.83033 | 38117 ft | 488 kts | 323° |
| 2026-05-07 13:09 | 53.86367 | 4.76321 | 38116 ft | 488 kts | 323° |
| 2026-05-07 13:10 | 53.91844 | 4.69653 | 38116 ft | 488 kts | 323° |
| 2026-05-07 13:10 | 53.97357 | 4.62918 | 38115 ft | 488 kts | 323° |
| 2026-05-07 13:11 | 54.02862 | 4.56168 | 38116 ft | 488 kts | 323° |
| 2026-05-07 13:11 | 54.08368 | 4.49397 | 38119 ft | 488 kts | 323° |
| 2026-05-07 13:12 | 54.13839 | 4.42646 | 38120 ft | 487 kts | 323° |
| 2026-05-07 13:12 | 54.19364 | 4.35805 | 38118 ft | 487 kts | 323° |
| 2026-05-07 13:13 | 54.24501 | 4.28396 | 38123 ft | 486 kts | 311° |
| 2026-05-07 13:13 | 54.28748 | 4.19418 | 38121 ft | 485 kts | 307° |
| 2026-05-07 13:14 | 54.32797 | 4.10178 | 38123 ft | 485 kts | 306° |
| 2026-05-07 13:14 | 54.36813 | 4.00882 | 38123 ft | 485 kts | 306° |
| 2026-05-07 13:15 | 54.40841 | 3.91572 | 38128 ft | 485 kts | 306° |
| 2026-05-07 13:15 | 54.44859 | 3.82287 | 38127 ft | 484 kts | 306° |
| 2026-05-07 13:16 | 54.48875 | 3.72985 | 38125 ft | 484 kts | 306° |
| 2026-05-07 13:16 | 54.52850 | 3.63741 | 38129 ft | 484 kts | 305° |
| 2026-05-07 13:17 | 54.56848 | 3.54407 | 38129 ft | 483 kts | 305° |
| 2026-05-07 13:17 | 54.60837 | 3.45058 | 38129 ft | 483 kts | 305° |
| 2026-05-07 13:18 | 54.64704 | 3.35961 | 38129 ft | 483 kts | 305° |
| 2026-05-07 13:18 | 54.68679 | 3.26576 | 38130 ft | 483 kts | 305° |
| 2026-05-07 13:19 | 54.72636 | 3.17196 | 38129 ft | 483 kts | 305° |
| 2026-05-07 13:19 | 54.76586 | 3.07799 | 38126 ft | 483 kts | 304° |
| 2026-05-07 13:20 | 54.80506 | 2.98439 | 38131 ft | 482 kts | 304° |
| 2026-05-07 13:20 | 54.84436 | 2.89017 | 38129 ft | 482 kts | 304° |
| 2026-05-07 13:21 | 54.88361 | 2.79571 | 38125 ft | 482 kts | 304° |
| 2026-05-07 13:21 | 54.92285 | 2.70094 | 38125 ft | 482 kts | 304° |
| 2026-05-07 13:22 | 54.96191 | 2.60621 | 38119 ft | 482 kts | 304° |
| 2026-05-07 13:22 | 55.00087 | 2.51139 | 38121 ft | 481 kts | 304° |
| 2026-05-07 13:23 | 55.03981 | 2.41624 | 38122 ft | 481 kts | 304° |
| 2026-05-07 13:23 | 55.07834 | 2.32172 | 38121 ft | 481 kts | 304° |
| 2026-05-07 13:24 | 55.11711 | 2.22625 | 38116 ft | 481 kts | 303° |
| 2026-05-07 13:24 | 55.15580 | 2.13061 | 38116 ft | 481 kts | 303° |
| 2026-05-07 13:25 | 55.19436 | 2.03494 | 38118 ft | 481 kts | 303° |
| 2026-05-07 13:25 | 55.23288 | 1.93898 | 38120 ft | 481 kts | 303° |
| 2026-05-07 13:26 | 55.27124 | 1.84304 | 38097 ft | 481 kts | 303° |
| 2026-05-07 13:26 | 55.30933 | 1.74740 | 38118 ft | 480 kts | 303° |
| 2026-05-07 13:27 | 55.34755 | 1.65108 | 38099 ft | 480 kts | 303° |
| 2026-05-07 13:27 | 55.38570 | 1.55455 | 38116 ft | 480 kts | 303° |
| 2026-05-07 13:28 | 55.42378 | 1.45781 | 38097 ft | 480 kts | 302° |
| 2026-05-07 13:28 | 55.46173 | 1.36103 | 38102 ft | 480 kts | 302° |
| 2026-05-07 13:29 | 55.49945 | 1.26445 | 38097 ft | 480 kts | 302° |
| 2026-05-07 13:29 | 55.53726 | 1.16727 | 38090 ft | 480 kts | 302° |
| 2026-05-07 13:30 | 55.57498 | 1.06992 | 38091 ft | 480 kts | 302° |
| 2026-05-07 13:30 | 55.61262 | 0.97240 | 38090 ft | 480 kts | 302° |
| 2026-05-07 13:31 | 55.65019 | 0.87467 | 38087 ft | 480 kts | 302° |
| 2026-05-07 13:31 | 55.68553 | 0.78240 | 38084 ft | 480 kts | 302° |
| 2026-05-07 13:32 | 55.72293 | 0.68435 | 38083 ft | 479 kts | 302° |
| 2026-05-07 13:32 | 55.76025 | 0.58614 | 38077 ft | 479 kts | 302° |
| 2026-05-07 13:33 | 55.79740 | 0.48794 | 38078 ft | 479 kts | 301° |
| 2026-05-07 13:33 | 55.82825 | 0.40613 | 38075 ft | 479 kts | 301° |
| 2026-05-07 13:34 | 55.88972 | 0.24227 | 38063 ft | 478 kts | 301° |
| 2026-05-07 13:35 | 55.92060 | 0.15956 | 38062 ft | 478 kts | 301° |
| 2026-05-07 13:35 | 55.95730 | 0.06088 | 38062 ft | 477 kts | 301° |
| 2026-05-07 13:36 | 55.98778 | -0.02138 | 38062 ft | 477 kts | 301° |
| 2026-05-07 13:36 | 56.03035 | -0.13678 | 38054 ft | 477 kts | 301° |
| 2026-05-07 13:37 | 56.06680 | -0.23599 | 38044 ft | 477 kts | 301° |
| 2026-05-07 13:37 | 56.10293 | -0.33475 | 38046 ft | 476 kts | 300° |
| 2026-05-07 13:38 | 56.13916 | -0.43417 | 38042 ft | 476 kts | 300° |
| 2026-05-07 13:38 | 56.17536 | -0.53390 | 38038 ft | 476 kts | 300° |
| 2026-05-07 13:39 | 56.21132 | -0.63343 | 38038 ft | 475 kts | 300° |
| 2026-05-07 13:39 | 56.24705 | -0.73269 | 38032 ft | 475 kts | 300° |
| 2026-05-07 13:40 | 56.28287 | -0.83263 | 38027 ft | 475 kts | 300° |
| 2026-05-07 13:40 | 56.31861 | -0.93272 | 38022 ft | 475 kts | 300° |
| 2026-05-07 13:41 | 56.35426 | -1.03301 | 38016 ft | 474 kts | 300° |
| 2026-05-07 13:41 | 56.38962 | -1.13350 | 38008 ft | 474 kts | 299° |
| 2026-05-07 13:42 | 56.42503 | -1.23425 | 38008 ft | 474 kts | 299° |
| 2026-05-07 13:42 | 56.46019 | -1.33432 | 38003 ft | 474 kts | 299° |
| 2026-05-07 13:43 | 56.49554 | -1.43494 | 38002 ft | 474 kts | 299° |
| 2026-05-07 13:43 | 56.53079 | -1.53584 | 37993 ft | 474 kts | 299° |
| 2026-05-07 13:44 | 56.56579 | -1.63714 | 37992 ft | 474 kts | 298° |
| 2026-05-07 13:44 | 56.60068 | -1.73863 | 37987 ft | 474 kts | 298° |
| 2026-05-07 13:45 | 56.63538 | -1.83969 | 37981 ft | 474 kts | 298° |
| 2026-05-07 13:45 | 56.67023 | -1.94150 | 37978 ft | 474 kts | 298° |
| 2026-05-07 13:46 | 56.70501 | -2.04338 | 37976 ft | 474 kts | 298° |
| 2026-05-07 13:46 | 56.73955 | -2.14502 | 37972 ft | 474 kts | 298° |
| 2026-05-07 13:47 | 56.77422 | -2.24754 | 37972 ft | 474 kts | 298° |
| 2026-05-07 13:47 | 56.80873 | -2.34999 | 37972 ft | 474 kts | 298° |
| 2026-05-07 13:48 | 56.84297 | -2.45206 | 37970 ft | 475 kts | 298° |
| 2026-05-07 13:48 | 56.87735 | -2.55501 | 37957 ft | 475 kts | 297° |
| 2026-05-07 13:49 | 56.91165 | -2.65824 | 37957 ft | 475 kts | 297° |
| 2026-05-07 13:49 | 56.94586 | -2.76164 | 37955 ft | 475 kts | 297° |
| 2026-05-07 13:50 | 56.98008 | -2.86548 | 37959 ft | 475 kts | 297° |
| 2026-05-07 13:50 | 57.01416 | -2.96935 | 37941 ft | 475 kts | 297° |
| 2026-05-07 13:51 | 57.04813 | -3.07337 | 37938 ft | 475 kts | 297° |
| 2026-05-07 13:51 | 57.08203 | -3.17762 | 37935 ft | 475 kts | 297° |
| 2026-05-07 13:52 | 57.11559 | -3.28128 | 37928 ft | 475 kts | 296° |
| 2026-05-07 13:52 | 57.14939 | -3.38614 | 37919 ft | 475 kts | 296° |
| 2026-05-07 13:53 | 57.18305 | -3.49103 | 37915 ft | 475 kts | 296° |
| 2026-05-07 13:53 | 57.21661 | -3.59620 | 37913 ft | 475 kts | 296° |
| 2026-05-07 13:54 | 57.25011 | -3.70156 | 37905 ft | 475 kts | 296° |
| 2026-05-07 13:54 | 57.28321 | -3.80606 | 37895 ft | 475 kts | 296° |
| 2026-05-07 13:55 | 57.31647 | -3.91156 | 37888 ft | 474 kts | 295° |
| 2026-05-07 13:55 | 57.34960 | -4.01712 | 37885 ft | 474 kts | 295° |
| 2026-05-07 13:56 | 57.38268 | -4.12290 | 37883 ft | 474 kts | 295° |
| 2026-05-07 13:56 | 57.41575 | -4.22880 | 37883 ft | 473 kts | 295° |
| 2026-05-07 13:57 | 57.44854 | -4.33446 | 37880 ft | 473 kts | 295° |
| 2026-05-07 13:57 | 57.48123 | -4.44047 | 37879 ft | 472 kts | 295° |
| 2026-05-07 13:58 | 57.51381 | -4.54658 | 37872 ft | 472 kts | 295° |
| 2026-05-07 13:58 | 57.54608 | -4.65211 | 37862 ft | 472 kts | 295° |
| 2026-05-07 13:59 | 57.57842 | -4.75844 | 37855 ft | 471 kts | 295° |
| 2026-05-07 13:59 | 57.61062 | -4.86496 | 37863 ft | 471 kts | 295° |
| 2026-05-07 14:00 | 57.64275 | -4.97152 | 37863 ft | 471 kts | 295° |
| 2026-05-07 14:00 | 57.67463 | -5.07773 | 37849 ft | 471 kts | 294° |
| 2026-05-07 14:01 | 57.70655 | -5.18460 | 37848 ft | 471 kts | 294° |
| 2026-05-07 14:01 | 57.73838 | -5.29166 | 37849 ft | 471 kts | 294° |
| 2026-05-07 14:02 | 57.77017 | -5.39904 | 37845 ft | 471 kts | 294° |
| 2026-05-07 14:02 | 57.80185 | -5.50660 | 37840 ft | 471 kts | 294° |
| 2026-05-07 14:03 | 57.83349 | -5.61455 | 37842 ft | 471 kts | 294° |
| 2026-05-07 14:03 | 57.86502 | -5.72263 | 37831 ft | 472 kts | 294° |
| 2026-05-07 14:04 | 57.89631 | -5.83035 | 37826 ft | 472 kts | 294° |
| 2026-05-07 14:04 | 57.92774 | -5.93902 | 37816 ft | 473 kts | 294° |
| 2026-05-07 14:05 | 57.95904 | -6.04781 | 37812 ft | 473 kts | 294° |
| 2026-05-07 14:05 | 57.99034 | -6.15711 | 37793 ft | 474 kts | 294° |
| 2026-05-07 14:06 | 58.02162 | -6.26688 | 37785 ft | 474 kts | 293° |
| 2026-05-07 14:06 | 58.05281 | -6.37679 | 37781 ft | 475 kts | 293° |
| 2026-05-07 14:07 | 58.08372 | -6.48627 | 37780 ft | 475 kts | 293° |
| 2026-05-07 14:07 | 58.11477 | -6.59676 | 37777 ft | 476 kts | 293° |
| 2026-05-07 14:08 | 58.14577 | -6.70764 | 37777 ft | 476 kts | 293° |
| 2026-05-07 14:08 | 58.17668 | -6.81870 | 37771 ft | 477 kts | 293° |
| 2026-05-07 14:09 | 58.20753 | -6.93010 | 37771 ft | 477 kts | 292° |
| 2026-05-07 14:09 | 58.23834 | -7.04190 | 37760 ft | 478 kts | 292° |
| 2026-05-07 14:10 | 58.26906 | -7.15393 | 37757 ft | 478 kts | 292° |
| 2026-05-07 14:10 | 58.29967 | -7.26613 | 37750 ft | 478 kts | 292° |
| 2026-05-07 14:11 | 58.32997 | -7.37772 | 37742 ft | 478 kts | 292° |
| 2026-05-07 14:11 | 58.36039 | -7.49028 | 37735 ft | 478 kts | 292° |
| 2026-05-07 14:12 | 58.39071 | -7.60305 | 37731 ft | 478 kts | 292° |
| 2026-05-07 14:12 | 58.42093 | -7.71605 | 37728 ft | 478 kts | 292° |
| 2026-05-07 14:13 | 58.45106 | -7.82925 | 37720 ft | 478 kts | 292° |
| 2026-05-07 14:13 | 58.48112 | -7.94274 | 37715 ft | 478 kts | 292° |
| 2026-05-07 14:14 | 58.51081 | -8.05544 | 37705 ft | 478 kts | 292° |
| 2026-05-07 14:14 | 58.54060 | -8.16905 | 37702 ft | 477 kts | 292° |
| 2026-05-07 14:15 | 58.57032 | -8.28300 | 37693 ft | 477 kts | 292° |
| 2026-05-07 14:15 | 58.59992 | -8.39703 | 37688 ft | 477 kts | 292° |
| 2026-05-07 14:16 | 58.62937 | -8.51111 | 37685 ft | 477 kts | 292° |
| 2026-05-07 14:16 | 58.65857 | -8.62480 | 37675 ft | 477 kts | 292° |
| 2026-05-07 14:17 | 58.68786 | -8.73938 | 37668 ft | 477 kts | 292° |
| 2026-05-07 14:17 | 58.71700 | -8.85401 | 37665 ft | 477 kts | 292° |
| 2026-05-07 14:18 | 58.74607 | -8.96894 | 37653 ft | 477 kts | 292° |
| 2026-05-07 14:18 | 58.77507 | -9.08423 | 37659 ft | 478 kts | 292° |
| 2026-05-07 14:19 | 58.80397 | -9.19967 | 37643 ft | 478 kts | 292° |
| 2026-05-07 14:19 | 58.83261 | -9.31472 | 37647 ft | 479 kts | 292° |
| 2026-05-07 14:20 | 58.86136 | -9.43078 | 37636 ft | 479 kts | 292° |
| 2026-05-07 14:20 | 58.88998 | -9.54692 | 37629 ft | 476 kts | 292° |
| 2026-05-07 14:21 | 58.91830 | -9.66239 | 37628 ft | 474 kts | 292° |
| 2026-05-07 14:21 | 58.94173 | -9.75847 | 37621 ft | 475 kts | 292° |
| 2026-05-07 14:22 | 58.97460 | -9.89398 | 37624 ft | 475 kts | 292° |
| 2026-05-07 14:22 | 58.99825 | -9.99027 | 37609 ft | 477 kts | 295° |
| 2026-05-07 14:23 | 59.03150 | -10.10201 | 37606 ft | 479 kts | 297° |
| 2026-05-07 14:23 | 59.06569 | -10.21317 | 37602 ft | 479 kts | 297° |
| 2026-05-07 14:24 | 59.09990 | -10.32435 | 37596 ft | 480 kts | 297° |
| 2026-05-07 14:24 | 59.13407 | -10.43628 | 37592 ft | 480 kts | 297° |
| 2026-05-07 14:25 | 59.16786 | -10.54768 | 37591 ft | 480 kts | 297° |
| 2026-05-07 14:25 | 59.20178 | -10.66013 | 37586 ft | 481 kts | 297° |
| 2026-05-07 14:26 | 59.23562 | -10.77282 | 37580 ft | 481 kts | 297° |
| 2026-05-07 14:26 | 59.26938 | -10.88575 | 37580 ft | 481 kts | 297° |
| 2026-05-07 14:27 | 59.30303 | -10.99889 | 37574 ft | 481 kts | 297° |
| 2026-05-07 14:27 | 59.33658 | -11.11220 | 37574 ft | 481 kts | 297° |
| 2026-05-07 14:28 | 59.36987 | -11.22522 | 37569 ft | 481 kts | 297° |
| 2026-05-07 14:28 | 59.40322 | -11.33903 | 37568 ft | 481 kts | 297° |
| 2026-05-07 14:29 | 59.43654 | -11.45326 | 37563 ft | 481 kts | 297° |
| 2026-05-07 14:29 | 59.46973 | -11.56762 | 37559 ft | 481 kts | 297° |
| 2026-05-07 14:30 | 59.50280 | -11.68214 | 37560 ft | 481 kts | 297° |
| 2026-05-07 14:30 | 59.53578 | -11.79691 | 37559 ft | 481 kts | 297° |
| 2026-05-07 14:31 | 59.56846 | -11.91123 | 37560 ft | 482 kts | 297° |
| 2026-05-07 14:31 | 59.60126 | -12.02655 | 37560 ft | 482 kts | 297° |
| 2026-05-07 14:32 | 59.63396 | -12.14208 | 37564 ft | 482 kts | 297° |
| 2026-05-07 14:32 | 59.66657 | -12.25788 | 37564 ft | 482 kts | 297° |
| 2026-05-07 14:33 | 59.69914 | -12.37415 | 37569 ft | 482 kts | 297° |
| 2026-05-07 14:33 | 59.73155 | -12.49041 | 37571 ft | 482 kts | 297° |
| 2026-05-07 14:34 | 59.76387 | -12.60697 | 37572 ft | 483 kts | 297° |
| 2026-05-07 14:34 | 59.79602 | -12.72348 | 37573 ft | 483 kts | 296° |
| 2026-05-07 14:35 | 59.82823 | -12.84081 | 37578 ft | 483 kts | 296° |
| 2026-05-07 14:35 | 59.86031 | -12.95826 | 37585 ft | 482 kts | 296° |
| 2026-05-07 14:36 | 59.89218 | -13.07560 | 37594 ft | 482 kts | 296° |
| 2026-05-07 14:36 | 59.92369 | -13.19230 | 37600 ft | 481 kts | 296° |
| 2026-05-07 14:37 | 59.95522 | -13.30974 | 37610 ft | 480 kts | 295° |
| 2026-05-07 14:37 | 60.00232 | -13.48627 | 37629 ft | 480 kts | 296° |
| 2026-05-07 14:38 | 60.03365 | -13.60426 | 37643 ft | 480 kts | 296° |
| 2026-05-07 14:38 | 60.06486 | -13.72258 | 37660 ft | 480 kts | 296° |
| 2026-05-07 14:39 | 60.09599 | -13.84104 | 37680 ft | 481 kts | 296° |
| 2026-05-07 14:39 | 60.12706 | -13.96000 | 37690 ft | 481 kts | 296° |
| 2026-05-07 14:40 | 60.15798 | -14.07911 | 37713 ft | 481 kts | 296° |
| 2026-05-07 14:40 | 60.18883 | -14.19837 | 37725 ft | 481 kts | 295° |
| 2026-05-07 14:41 | 60.21955 | -14.31787 | 37742 ft | 481 kts | 296° |
| 2026-05-07 14:41 | 60.25019 | -14.43769 | 37755 ft | 481 kts | 296° |
| 2026-05-07 14:42 | 60.28073 | -14.55787 | 37770 ft | 481 kts | 296° |
| 2026-05-07 14:42 | 60.31102 | -14.67759 | 37785 ft | 482 kts | 296° |
| 2026-05-07 14:43 | 60.34133 | -14.79812 | 37800 ft | 481 kts | 296° |
| 2026-05-07 14:43 | 60.37154 | -14.91891 | 37811 ft | 482 kts | 296° |
| 2026-05-07 14:44 | 60.40171 | -15.04019 | 37824 ft | 482 kts | 295° |
| 2026-05-07 14:44 | 60.43171 | -15.16140 | 37834 ft | 482 kts | 295° |
| 2026-05-07 14:45 | 60.46162 | -15.28299 | 37846 ft | 482 kts | 295° |
| 2026-05-07 14:45 | 60.49128 | -15.40421 | 37854 ft | 482 kts | 295° |
| 2026-05-07 14:46 | 60.52100 | -15.52618 | 37851 ft | 482 kts | 295° |
| 2026-05-07 14:46 | 60.55062 | -15.64843 | 37884 ft | 482 kts | 295° |
| 2026-05-07 14:47 | 60.58012 | -15.77101 | 37894 ft | 482 kts | 295° |
| 2026-05-07 14:47 | 60.60946 | -15.89362 | 37883 ft | 482 kts | 295° |
| 2026-05-07 14:48 | 60.63873 | -16.01664 | 37898 ft | 482 kts | 295° |
| 2026-05-07 14:48 | 60.66767 | -16.13897 | 37926 ft | 482 kts | 295° |
| 2026-05-07 14:49 | 60.69668 | -16.26227 | 37918 ft | 482 kts | 295° |
| 2026-05-07 14:49 | 60.72557 | -16.38583 | 37928 ft | 482 kts | 295° |
| 2026-05-07 14:50 | 60.75438 | -16.50967 | 37933 ft | 482 kts | 295° |
| 2026-05-07 14:50 | 60.78305 | -16.63369 | 37942 ft | 482 kts | 295° |
| 2026-05-07 14:51 | 60.81163 | -16.75801 | 37973 ft | 482 kts | 295° |
| 2026-05-07 14:51 | 60.83990 | -16.88169 | 37977 ft | 481 kts | 295° |
| 2026-05-07 14:52 | 60.86821 | -17.00626 | 37968 ft | 481 kts | 295° |
| 2026-05-07 14:52 | 60.89638 | -17.13096 | 37982 ft | 481 kts | 294° |
| 2026-05-07 14:53 | 60.92445 | -17.25601 | 37993 ft | 481 kts | 294° |
| 2026-05-07 14:53 | 60.95240 | -17.38124 | 38012 ft | 481 kts | 294° |
| 2026-05-07 14:54 | 60.98010 | -17.50601 | 38005 ft | 481 kts | 294° |
| 2026-05-07 14:54 | 61.00781 | -17.63159 | 38010 ft | 481 kts | 294° |
| 2026-05-07 14:55 | 61.03547 | -17.75771 | 38019 ft | 481 kts | 294° |
| 2026-05-07 14:55 | 61.06288 | -17.88344 | 38041 ft | 481 kts | 294° |
| 2026-05-07 14:56 | 61.09021 | -18.00952 | 38035 ft | 480 kts | 294° |
| 2026-05-07 14:56 | 61.11726 | -18.13510 | 38040 ft | 480 kts | 294° |
| 2026-05-07 14:57 | 61.14433 | -18.26155 | 38046 ft | 481 kts | 294° |
| 2026-05-07 14:57 | 61.17129 | -18.38824 | 38066 ft | 481 kts | 294° |
| 2026-05-07 14:58 | 61.19815 | -18.51524 | 38072 ft | 480 kts | 294° |
| 2026-05-07 14:58 | 61.22489 | -18.64245 | 38072 ft | 480 kts | 294° |
| 2026-05-07 14:59 | 61.25150 | -18.76979 | 38065 ft | 480 kts | 294° |
| 2026-05-07 14:59 | 61.27779 | -18.89644 | 38075 ft | 480 kts | 294° |
| 2026-05-07 15:00 | 61.30413 | -19.02409 | 38090 ft | 480 kts | 294° |
| 2026-05-07 15:00 | 61.33034 | -19.15189 | 38098 ft | 480 kts | 294° |
| 2026-05-07 15:01 | 61.35644 | -19.27994 | 38097 ft | 480 kts | 293° |
| 2026-05-07 15:01 | 61.38249 | -19.40856 | 38103 ft | 480 kts | 293° |
| 2026-05-07 15:02 | 61.40839 | -19.53728 | 38110 ft | 480 kts | 293° |
| 2026-05-07 15:02 | 61.43399 | -19.66531 | 38113 ft | 480 kts | 293° |
| 2026-05-07 15:03 | 61.45963 | -19.79431 | 38116 ft | 480 kts | 293° |
| 2026-05-07 15:03 | 61.48514 | -19.92350 | 38114 ft | 480 kts | 293° |
| 2026-05-07 15:04 | 61.51543 | -20.04793 | 38123 ft | 479 kts | 302° |
| 2026-05-07 15:04 | 61.55103 | -20.16602 | 38128 ft | 480 kts | 303° |
| 2026-05-07 15:05 | 61.58716 | -20.28307 | 38128 ft | 480 kts | 303° |
| 2026-05-07 15:05 | 61.62345 | -20.40116 | 38130 ft | 481 kts | 303° |
| 2026-05-07 15:06 | 61.65963 | -20.51998 | 38137 ft | 482 kts | 303° |
| 2026-05-07 15:06 | 61.69565 | -20.63913 | 38173 ft | 483 kts | 303° |
| 2026-05-07 15:07 | 61.70755 | -20.67862 | 38279 ft | 483 kts | 303° |
| 2026-05-07 15:07 | 61.72557 | -20.73856 | 38510 ft | 483 kts | 303° |
| 2026-05-07 15:07 | 61.74359 | -20.79868 | 38733 ft | 483 kts | 303° |
| 2026-05-07 15:07 | 61.76738 | -20.87827 | 38949 ft | 484 kts | 303° |
| 2026-05-07 15:08 | 61.77951 | -20.91893 | 39056 ft | 484 kts | 303° |
| 2026-05-07 15:08 | 61.79739 | -20.97904 | 39215 ft | 484 kts | 303° |
| 2026-05-07 15:08 | 61.81530 | -21.03940 | 39372 ft | 483 kts | 303° |
| 2026-05-07 15:08 | 61.83313 | -21.09964 | 39543 ft | 483 kts | 303° |
| 2026-05-07 15:09 | 61.85098 | -21.16011 | 39691 ft | 483 kts | 303° |
| 2026-05-07 15:09 | 61.86876 | -21.22050 | 39828 ft | 483 kts | 303° |
| 2026-05-07 15:09 | 61.88628 | -21.28019 | 39975 ft | 483 kts | 303° |
| 2026-05-07 15:09 | 61.90403 | -21.34078 | 40109 ft | 483 kts | 303° |
| 2026-05-07 15:10 | 61.93944 | -21.46219 | 40154 ft | 483 kts | 303° |
| 2026-05-07 15:10 | 61.97467 | -21.58366 | 40154 ft | 482 kts | 303° |
| 2026-05-07 15:11 | 62.00978 | -21.70535 | 40159 ft | 482 kts | 303° |
| 2026-05-07 15:11 | 62.04474 | -21.82711 | 40162 ft | 482 kts | 303° |
| 2026-05-07 15:12 | 62.07956 | -21.94906 | 40164 ft | 481 kts | 303° |
| 2026-05-07 15:12 | 62.11426 | -22.07133 | 40170 ft | 481 kts | 303° |
| 2026-05-07 15:13 | 62.14881 | -22.19365 | 40174 ft | 480 kts | 303° |
| 2026-05-07 15:13 | 62.18291 | -22.31564 | 40179 ft | 480 kts | 303° |
| 2026-05-07 15:14 | 62.21728 | -22.43842 | 40185 ft | 480 kts | 303° |
| 2026-05-07 15:14 | 62.25160 | -22.56160 | 40187 ft | 481 kts | 302° |
| 2026-05-07 15:15 | 62.28577 | -22.68516 | 40195 ft | 481 kts | 302° |
| 2026-05-07 15:15 | 62.31957 | -22.80813 | 40198 ft | 481 kts | 302° |
| 2026-05-07 15:16 | 62.35355 | -22.93244 | 40203 ft | 481 kts | 302° |
| 2026-05-07 15:16 | 62.38741 | -23.05698 | 40207 ft | 481 kts | 302° |
| 2026-05-07 15:17 | 62.42113 | -23.18173 | 40214 ft | 481 kts | 302° |
| 2026-05-07 15:17 | 62.45479 | -23.30696 | 40214 ft | 481 kts | 302° |
| 2026-05-07 15:18 | 62.48808 | -23.43148 | 40220 ft | 481 kts | 302° |
| 2026-05-07 15:18 | 62.52146 | -23.55706 | 40222 ft | 481 kts | 302° |
| 2026-05-07 15:19 | 62.55474 | -23.68294 | 40221 ft | 481 kts | 302° |
| 2026-05-07 15:19 | 62.58790 | -23.80906 | 40226 ft | 480 kts | 301° |
| 2026-05-07 15:20 | 62.62083 | -23.93506 | 40229 ft | 480 kts | 301° |
| 2026-05-07 15:20 | 62.65366 | -24.06140 | 40235 ft | 480 kts | 301° |
| 2026-05-07 15:21 | 62.68636 | -24.18792 | 40242 ft | 480 kts | 301° |
| 2026-05-07 15:21 | 62.71895 | -24.31472 | 40244 ft | 479 kts | 301° |
| 2026-05-07 15:22 | 62.75123 | -24.44106 | 40249 ft | 479 kts | 301° |
| 2026-05-07 15:22 | 62.78355 | -24.56832 | 40251 ft | 479 kts | 301° |
| 2026-05-07 15:23 | 62.81568 | -24.69552 | 40256 ft | 478 kts | 301° |
| 2026-05-07 15:23 | 62.84775 | -24.82323 | 40261 ft | 478 kts | 301° |
| 2026-05-07 15:24 | 62.87964 | -24.95095 | 40266 ft | 478 kts | 301° |
| 2026-05-07 15:24 | 62.91148 | -25.07921 | 40268 ft | 478 kts | 301° |
| 2026-05-07 15:25 | 62.94296 | -25.20675 | 40272 ft | 478 kts | 301° |
| 2026-05-07 15:25 | 62.97453 | -25.33546 | 40272 ft | 478 kts | 300° |
| 2026-05-07 15:26 | 63.00598 | -25.46438 | 40291 ft | 478 kts | 300° |
| 2026-05-07 15:26 | 63.03732 | -25.59362 | 40298 ft | 478 kts | 300° |
| 2026-05-07 15:27 | 63.06857 | -25.72329 | 40288 ft | 478 kts | 300° |
| 2026-05-07 15:27 | 63.09968 | -25.85309 | 40284 ft | 478 kts | 300° |
| 2026-05-07 15:28 | 63.13058 | -25.98281 | 40302 ft | 478 kts | 300° |
| 2026-05-07 15:28 | 63.16141 | -26.11304 | 40299 ft | 477 kts | 300° |
| 2026-05-07 15:29 | 63.19196 | -26.24281 | 40298 ft | 477 kts | 300° |
| 2026-05-07 15:29 | 63.22248 | -26.37327 | 40310 ft | 477 kts | 300° |
| 2026-05-07 15:30 | 63.25288 | -26.50401 | 40308 ft | 477 kts | 300° |
| 2026-05-07 15:30 | 63.28323 | -26.63532 | 40312 ft | 477 kts | 300° |
| 2026-05-07 15:31 | 63.31340 | -26.76662 | 40314 ft | 476 kts | 300° |
| 2026-05-07 15:31 | 63.34343 | -26.89815 | 40315 ft | 476 kts | 299° |
| 2026-05-07 15:32 | 63.37332 | -27.02984 | 40321 ft | 476 kts | 299° |
| 2026-05-07 15:32 | 63.40310 | -27.16189 | 40324 ft | 476 kts | 299° |
| 2026-05-07 15:33 | 63.43269 | -27.29388 | 40326 ft | 476 kts | 299° |
| 2026-05-07 15:33 | 63.46198 | -27.42538 | 40330 ft | 475 kts | 299° |
| 2026-05-07 15:34 | 63.49138 | -27.55814 | 40330 ft | 475 kts | 299° |
| 2026-05-07 15:34 | 63.52060 | -27.69097 | 40330 ft | 475 kts | 299° |
| 2026-05-07 15:35 | 63.54968 | -27.82394 | 40333 ft | 475 kts | 298° |
| 2026-05-07 15:35 | 63.57869 | -27.95745 | 40331 ft | 475 kts | 298° |
| 2026-05-07 15:36 | 63.60750 | -28.09090 | 40338 ft | 474 kts | 298° |
| 2026-05-07 15:36 | 63.63598 | -28.22364 | 40340 ft | 474 kts | 298° |
| 2026-05-07 15:37 | 63.66454 | -28.35762 | 40332 ft | 474 kts | 298° |
| 2026-05-07 15:37 | 63.69289 | -28.49142 | 40349 ft | 474 kts | 298° |
| 2026-05-07 15:38 | 63.72118 | -28.62581 | 40344 ft | 473 kts | 298° |
| 2026-05-07 15:38 | 63.74925 | -28.76004 | 40345 ft | 473 kts | 298° |
| 2026-05-07 15:39 | 63.77723 | -28.89467 | 40340 ft | 473 kts | 298° |
| 2026-05-07 15:39 | 63.80504 | -29.02938 | 40345 ft | 472 kts | 298° |
| 2026-05-07 15:40 | 63.83256 | -29.16354 | 40343 ft | 472 kts | 298° |
| 2026-05-07 15:40 | 63.86008 | -29.29860 | 40345 ft | 472 kts | 297° |
| 2026-05-07 15:41 | 63.88753 | -29.43414 | 40346 ft | 471 kts | 297° |
| 2026-05-07 15:41 | 63.91475 | -29.56947 | 40348 ft | 471 kts | 297° |
| 2026-05-07 15:42 | 63.94183 | -29.70503 | 40345 ft | 471 kts | 297° |
| 2026-05-07 15:42 | 63.96880 | -29.84089 | 40347 ft | 470 kts | 297° |
| 2026-05-07 15:43 | 63.99544 | -29.97594 | 40348 ft | 470 kts | 297° |
| 2026-05-07 15:43 | 64.02199 | -30.11206 | 40346 ft | 470 kts | 297° |
| 2026-05-07 15:44 | 64.04817 | -30.24875 | 40345 ft | 469 kts | 296° |
| 2026-05-07 15:44 | 64.07420 | -30.38557 | 40342 ft | 469 kts | 296° |
| 2026-05-07 15:45 | 64.10017 | -30.52276 | 40342 ft | 469 kts | 296° |
| 2026-05-07 15:45 | 64.12595 | -30.65973 | 40342 ft | 468 kts | 296° |
| 2026-05-07 15:46 | 64.16421 | -30.86469 | 40340 ft | 468 kts | 296° |
| 2026-05-07 15:47 | 64.18963 | -31.00208 | 40341 ft | 467 kts | 296° |
| 2026-05-07 15:47 | 64.21492 | -31.13977 | 40335 ft | 467 kts | 296° |
| 2026-05-07 15:48 | 64.24008 | -31.27766 | 40333 ft | 467 kts | 296° |
| 2026-05-07 15:48 | 64.26504 | -31.41538 | 40333 ft | 466 kts | 296° |
| 2026-05-07 15:49 | 64.28968 | -31.55233 | 40332 ft | 466 kts | 296° |
| 2026-05-07 15:49 | 64.31434 | -31.69039 | 40330 ft | 465 kts | 296° |
| 2026-05-07 15:50 | 64.33886 | -31.82860 | 40332 ft | 465 kts | 296° |
| 2026-05-07 15:50 | 64.36322 | -31.96687 | 40337 ft | 465 kts | 295° |
| 2026-05-07 15:51 | 64.38746 | -32.10548 | 40332 ft | 464 kts | 295° |
| 2026-05-07 15:51 | 64.41136 | -32.24309 | 40331 ft | 464 kts | 295° |
| 2026-05-07 15:52 | 64.43527 | -32.38174 | 40332 ft | 464 kts | 295° |
| 2026-05-07 15:52 | 64.45905 | -32.52069 | 40332 ft | 464 kts | 295° |
| 2026-05-07 15:53 | 64.48268 | -32.65974 | 40326 ft | 463 kts | 295° |
| 2026-05-07 15:53 | 64.50616 | -32.79897 | 40321 ft | 463 kts | 295° |
| 2026-05-07 15:54 | 64.52555 | -32.91468 | 40320 ft | 463 kts | 295° |
| 2026-05-07 15:54 | 64.54875 | -33.05406 | 40320 ft | 462 kts | 295° |
| 2026-05-07 15:55 | 64.57179 | -33.19347 | 40318 ft | 462 kts | 295° |
| 2026-05-07 15:55 | 64.59476 | -33.33351 | 40322 ft | 462 kts | 295° |
| 2026-05-07 15:56 | 64.61755 | -33.47349 | 40319 ft | 462 kts | 295° |
| 2026-05-07 15:56 | 64.64019 | -33.61361 | 40319 ft | 462 kts | 294° |
| 2026-05-07 15:57 | 64.66256 | -33.75317 | 40319 ft | 462 kts | 294° |
| 2026-05-07 15:57 | 64.68493 | -33.89373 | 40317 ft | 461 kts | 294° |
| 2026-05-07 15:58 | 64.70717 | -34.03462 | 40315 ft | 461 kts | 294° |
| 2026-05-07 15:58 | 64.72925 | -34.17547 | 40316 ft | 461 kts | 294° |
| 2026-05-07 15:59 | 64.75122 | -34.31679 | 40315 ft | 461 kts | 294° |
| 2026-05-07 15:59 | 64.77304 | -34.45818 | 40312 ft | 461 kts | 294° |
| 2026-05-07 16:00 | 64.79457 | -34.59877 | 40317 ft | 461 kts | 294° |
| 2026-05-07 16:00 | 64.81620 | -34.74114 | 40313 ft | 461 kts | 293° |
| 2026-05-07 16:01 | 64.83750 | -34.88242 | 40313 ft | 461 kts | 293° |
| 2026-05-07 16:01 | 64.85873 | -35.02446 | 40310 ft | 460 kts | 293° |
| 2026-05-07 16:02 | 64.87984 | -35.16674 | 40316 ft | 460 kts | 293° |
| 2026-05-07 16:02 | 64.90083 | -35.30940 | 40309 ft | 460 kts | 293° |
| 2026-05-07 16:03 | 64.92165 | -35.45201 | 40307 ft | 460 kts | 292° |
| 2026-05-07 16:03 | 64.94222 | -35.59407 | 40304 ft | 460 kts | 292° |
| 2026-05-07 16:04 | 64.96276 | -35.73707 | 40303 ft | 460 kts | 292° |
| 2026-05-07 16:04 | 64.98316 | -35.88030 | 40305 ft | 459 kts | 292° |
| 2026-05-07 16:05 | 65.00340 | -36.02354 | 40308 ft | 459 kts | 292° |
| 2026-05-07 16:05 | 65.02350 | -36.16702 | 40304 ft | 459 kts | 292° |
| 2026-05-07 16:06 | 65.04342 | -36.31040 | 40302 ft | 459 kts | 292° |
| 2026-05-07 16:06 | 65.06324 | -36.45428 | 40304 ft | 459 kts | 291° |
| 2026-05-07 16:07 | 65.08277 | -36.59720 | 40303 ft | 459 kts | 291° |
| 2026-05-07 16:07 | 65.10230 | -36.74141 | 40302 ft | 458 kts | 291° |
| 2026-05-07 16:08 | 65.12164 | -36.88541 | 40299 ft | 458 kts | 291° |
| 2026-05-07 16:08 | 65.14089 | -37.02999 | 40303 ft | 458 kts | 291° |
| 2026-05-07 16:09 | 65.15994 | -37.17432 | 40301 ft | 458 kts | 291° |
| 2026-05-07 16:09 | 65.17890 | -37.31922 | 40296 ft | 458 kts | 291° |
| 2026-05-07 16:10 | 65.19757 | -37.46316 | 40297 ft | 458 kts | 290° |
| 2026-05-07 16:10 | 65.21624 | -37.60844 | 40295 ft | 458 kts | 290° |
| 2026-05-07 16:11 | 65.23473 | -37.75359 | 40293 ft | 458 kts | 290° |
| 2026-05-07 16:11 | 65.25314 | -37.89939 | 40296 ft | 459 kts | 290° |
| 2026-05-07 16:12 | 65.27147 | -38.04582 | 40297 ft | 459 kts | 290° |
| 2026-05-07 16:12 | 65.28960 | -38.19213 | 40296 ft | 459 kts | 290° |
| 2026-05-07 16:13 | 65.30749 | -38.33769 | 40297 ft | 459 kts | 289° |
| 2026-05-07 16:13 | 65.32536 | -38.48457 | 40295 ft | 460 kts | 289° |
| 2026-05-07 16:14 | 65.34310 | -38.63171 | 40295 ft | 460 kts | 289° |
| 2026-05-07 16:14 | 65.36071 | -38.77916 | 40294 ft | 460 kts | 289° |
| 2026-05-07 16:15 | 65.37821 | -38.92703 | 40296 ft | 460 kts | 289° |
| 2026-05-07 16:15 | 65.39556 | -39.07516 | 40293 ft | 460 kts | 289° |
| 2026-05-07 16:16 | 65.41264 | -39.22234 | 40292 ft | 460 kts | 288° |
| 2026-05-07 16:16 | 65.42972 | -39.37094 | 40292 ft | 461 kts | 288° |
| 2026-05-07 16:17 | 65.44663 | -39.51959 | 40298 ft | 461 kts | 288° |
| 2026-05-07 16:17 | 65.46343 | -39.66875 | 40293 ft | 462 kts | 288° |
| 2026-05-07 16:18 | 65.48007 | -39.81796 | 40293 ft | 462 kts | 288° |
| 2026-05-07 16:18 | 65.49657 | -39.96735 | 40290 ft | 462 kts | 287° |
| 2026-05-07 16:19 | 65.51172 | -40.11824 | 40294 ft | 464 kts | 284° |
| 2026-05-07 16:19 | 65.52363 | -40.27015 | 40301 ft | 464 kts | 283° |
| 2026-05-07 16:20 | 65.53538 | -40.42344 | 40307 ft | 464 kts | 283° |
| 2026-05-07 16:20 | 65.54747 | -40.57651 | 40303 ft | 464 kts | 283° |
| 2026-05-07 16:21 | 65.55968 | -40.72977 | 40308 ft | 465 kts | 283° |
| 2026-05-07 16:21 | 65.57179 | -40.88352 | 40309 ft | 465 kts | 283° |
| 2026-05-07 16:22 | 65.58362 | -41.03603 | 40309 ft | 465 kts | 283° |
| 2026-05-07 16:22 | 65.59538 | -41.18995 | 40296 ft | 465 kts | 283° |
| 2026-05-07 16:23 | 65.60699 | -41.34420 | 40292 ft | 465 kts | 282° |
| 2026-05-07 16:23 | 65.61845 | -41.49862 | 40280 ft | 466 kts | 282° |
| 2026-05-07 16:24 | 65.62969 | -41.65220 | 40265 ft | 466 kts | 282° |
| 2026-05-07 16:24 | 65.64084 | -41.80702 | 40253 ft | 467 kts | 282° |
| 2026-05-07 16:25 | 65.65187 | -41.96234 | 40239 ft | 467 kts | 282° |
| 2026-05-07 16:25 | 65.66273 | -42.11773 | 40232 ft | 467 kts | 282° |
| 2026-05-07 16:26 | 65.67337 | -42.27225 | 40231 ft | 468 kts | 281° |
| 2026-05-07 16:26 | 65.68393 | -42.42813 | 40228 ft | 468 kts | 281° |
| 2026-05-07 16:27 | 65.69433 | -42.58403 | 40231 ft | 468 kts | 281° |
| 2026-05-07 16:27 | 65.70458 | -42.74022 | 40228 ft | 468 kts | 281° |
| 2026-05-07 16:28 | 65.71467 | -42.89657 | 40234 ft | 469 kts | 281° |
| 2026-05-07 16:28 | 65.72460 | -43.05300 | 40233 ft | 469 kts | 280° |
| 2026-05-07 16:29 | 65.73439 | -43.20986 | 40236 ft | 469 kts | 280° |
| 2026-05-07 16:29 | 65.74395 | -43.36584 | 40236 ft | 469 kts | 280° |
| 2026-05-07 16:30 | 65.75343 | -43.52298 | 40235 ft | 469 kts | 280° |
| 2026-05-07 16:30 | 65.76274 | -43.68039 | 40231 ft | 469 kts | 280° |
| 2026-05-07 16:31 | 65.77189 | -43.83776 | 40232 ft | 469 kts | 279° |
| 2026-05-07 16:31 | 65.78088 | -43.99541 | 40217 ft | 469 kts | 279° |
| 2026-05-07 16:32 | 65.78965 | -44.15212 | 40207 ft | 470 kts | 279° |
| 2026-05-07 16:32 | 65.79831 | -44.30972 | 40205 ft | 470 kts | 279° |
| 2026-05-07 16:33 | 65.80682 | -44.46776 | 40199 ft | 470 kts | 279° |
| 2026-05-07 16:33 | 65.81516 | -44.62580 | 40202 ft | 470 kts | 279° |
| 2026-05-07 16:34 | 65.82335 | -44.78402 | 40190 ft | 470 kts | 279° |
| 2026-05-07 16:34 | 65.83136 | -44.94219 | 40196 ft | 470 kts | 278° |
| 2026-05-07 16:35 | 65.83922 | -45.10065 | 40200 ft | 470 kts | 278° |
| 2026-05-07 16:35 | 65.84691 | -45.25908 | 40206 ft | 470 kts | 278° |
| 2026-05-07 16:36 | 65.85444 | -45.41779 | 40195 ft | 470 kts | 278° |
| 2026-05-07 16:36 | 65.86176 | -45.57549 | 40196 ft | 471 kts | 278° |
| 2026-05-07 16:37 | 65.86898 | -45.73474 | 40196 ft | 471 kts | 278° |
| 2026-05-07 16:37 | 65.87604 | -45.89400 | 40200 ft | 471 kts | 277° |
| 2026-05-07 16:38 | 65.88295 | -46.05373 | 40196 ft | 472 kts | 277° |
| 2026-05-07 16:38 | 65.88968 | -46.21338 | 40193 ft | 472 kts | 277° |
| 2026-05-07 16:39 | 65.89620 | -46.37212 | 40188 ft | 472 kts | 277° |
| 2026-05-07 16:39 | 65.90262 | -46.53222 | 40183 ft | 473 kts | 277° |
| 2026-05-07 16:40 | 65.90887 | -46.69249 | 40178 ft | 473 kts | 277° |
| 2026-05-07 16:40 | 65.91496 | -46.85304 | 40175 ft | 473 kts | 277° |
| 2026-05-07 16:41 | 65.91990 | -46.98673 | 40169 ft | 473 kts | 276° |
| 2026-05-07 16:41 | 65.92568 | -47.14738 | 40170 ft | 474 kts | 276° |
| 2026-05-07 16:42 | 65.93130 | -47.30816 | 40164 ft | 474 kts | 276° |
| 2026-05-07 16:42 | 65.93675 | -47.46921 | 40165 ft | 474 kts | 276° |
| 2026-05-07 16:43 | 65.94201 | -47.62951 | 40172 ft | 475 kts | 276° |
| 2026-05-07 16:43 | 65.94713 | -47.79085 | 40169 ft | 475 kts | 276° |
| 2026-05-07 16:44 | 65.95209 | -47.95214 | 40169 ft | 475 kts | 275° |
| 2026-05-07 16:44 | 65.95690 | -48.11459 | 40169 ft | 476 kts | 275° |
| 2026-05-07 16:45 | 65.96153 | -48.27664 | 40168 ft | 476 kts | 275° |
| 2026-05-07 16:45 | 65.96596 | -48.43768 | 40168 ft | 477 kts | 275° |
| 2026-05-07 16:46 | 65.97025 | -48.60008 | 40162 ft | 477 kts | 275° |
| 2026-05-07 16:46 | 65.97438 | -48.76265 | 40162 ft | 477 kts | 275° |
| 2026-05-07 16:47 | 65.97833 | -48.92518 | 40154 ft | 477 kts | 274° |
| 2026-05-07 16:47 | 65.98207 | -49.08788 | 40153 ft | 477 kts | 274° |
| 2026-05-07 16:48 | 65.98571 | -49.25093 | 40149 ft | 477 kts | 274° |
| 2026-05-07 16:48 | 65.98916 | -49.41366 | 40143 ft | 478 kts | 274° |
| 2026-05-07 16:49 | 65.99243 | -49.57658 | 40137 ft | 478 kts | 274° |
| 2026-05-07 16:49 | 65.99551 | -49.73897 | 40137 ft | 478 kts | 274° |
| 2026-05-07 16:50 | 65.99844 | -49.90200 | 40137 ft | 478 kts | 274° |
| 2026-05-07 16:50 | 65.99581 | -50.06508 | 40144 ft | 479 kts | 264° |
| 2026-05-07 16:51 | 65.98651 | -50.22675 | 40135 ft | 480 kts | 262° |
| 2026-05-07 16:51 | 65.97603 | -50.38936 | 40135 ft | 480 kts | 262° |
| 2026-05-07 16:52 | 65.96541 | -50.55152 | 40130 ft | 481 kts | 262° |
| 2026-05-07 16:52 | 65.95483 | -50.71231 | 40133 ft | 481 kts | 261° |
| 2026-05-07 16:53 | 65.94398 | -50.87551 | 40130 ft | 482 kts | 261° |
| 2026-05-07 16:53 | 65.93310 | -51.03659 | 40128 ft | 482 kts | 261° |
| 2026-05-07 16:54 | 65.92198 | -51.19853 | 40127 ft | 482 kts | 261° |
| 2026-05-07 16:54 | 65.91066 | -51.36058 | 40133 ft | 483 kts | 260° |
| 2026-05-07 16:55 | 65.89916 | -51.52255 | 40126 ft | 483 kts | 260° |
| 2026-05-07 16:55 | 65.88748 | -51.68451 | 40133 ft | 483 kts | 260° |
| 2026-05-07 16:56 | 65.87564 | -51.84630 | 40128 ft | 484 kts | 259° |
| 2026-05-07 16:56 | 65.85760 | -52.08814 | 40136 ft | 484 kts | 259° |
| 2026-05-07 16:57 | 65.84530 | -52.24997 | 40131 ft | 485 kts | 259° |
| 2026-05-07 16:57 | 65.83281 | -52.41180 | 40134 ft | 485 kts | 259° |
| 2026-05-07 16:58 | 65.82013 | -52.57377 | 40133 ft | 486 kts | 258° |
| 2026-05-07 16:58 | 65.80729 | -52.73559 | 40135 ft | 486 kts | 258° |
| 2026-05-07 16:59 | 65.79424 | -52.89752 | 40136 ft | 486 kts | 258° |
| 2026-05-07 16:59 | 65.78113 | -53.05807 | 40133 ft | 486 kts | 258° |
| 2026-05-07 17:00 | 65.76773 | -53.21977 | 40125 ft | 486 kts | 258° |
| 2026-05-07 17:00 | 65.75418 | -53.38119 | 40124 ft | 487 kts | 258° |
| 2026-05-07 17:01 | 65.74045 | -53.54251 | 40115 ft | 487 kts | 257° |
| 2026-05-07 17:01 | 65.72655 | -53.70379 | 40112 ft | 487 kts | 257° |
| 2026-05-07 17:02 | 65.71957 | -53.78422 | 40357 ft | 487 kts | 255° |
| 2026-05-07 17:02 | 65.71264 | -53.86372 | 40168 ft | 487 kts | 255° |
| 2026-05-07 17:02 | 65.69840 | -54.02446 | 40096 ft | 487 kts | 255° |
| 2026-05-07 17:03 | 65.68396 | -54.18505 | 40091 ft | 487 kts | 254° |
| 2026-05-07 17:03 | 65.66933 | -54.34584 | 40086 ft | 487 kts | 254° |
| 2026-05-07 17:04 | 65.65458 | -54.50619 | 40079 ft | 488 kts | 254° |
| 2026-05-07 17:04 | 65.63972 | -54.66573 | 40072 ft | 488 kts | 253° |
| 2026-05-07 17:05 | 65.62458 | -54.82604 | 40059 ft | 488 kts | 253° |
| 2026-05-07 17:05 | 65.60928 | -54.98617 | 40053 ft | 488 kts | 253° |
| 2026-05-07 17:06 | 65.59380 | -55.14633 | 40055 ft | 489 kts | 253° |
| 2026-05-07 17:06 | 65.57816 | -55.30637 | 40046 ft | 489 kts | 253° |
| 2026-05-07 17:07 | 65.56256 | -55.46424 | 40040 ft | 489 kts | 253° |
| 2026-05-07 17:07 | 65.54723 | -55.61745 | 40032 ft | 489 kts | 253° |
| 2026-05-07 17:08 | 65.53108 | -55.77691 | 40025 ft | 489 kts | 253° |
| 2026-05-07 17:08 | 65.51472 | -55.93656 | 40018 ft | 490 kts | 253° |
| 2026-05-07 17:09 | 65.49821 | -56.09586 | 40019 ft | 490 kts | 253° |
| 2026-05-07 17:09 | 65.48154 | -56.25508 | 40001 ft | 490 kts | 253° |
| 2026-05-07 17:10 | 65.46469 | -56.41410 | 40000 ft | 490 kts | 252° |
| 2026-05-07 17:10 | 65.44765 | -56.57305 | 39993 ft | 491 kts | 252° |
| 2026-05-07 17:11 | 65.43054 | -56.73082 | 39986 ft | 491 kts | 252° |
| 2026-05-07 17:11 | 65.41316 | -56.88946 | 39980 ft | 491 kts | 252° |
| 2026-05-07 17:12 | 65.39655 | -57.03952 | 39978 ft | 491 kts | 252° |
| 2026-05-07 17:12 | 65.37870 | -57.19921 | 39974 ft | 491 kts | 252° |
| 2026-05-07 17:13 | 65.36080 | -57.35755 | 39968 ft | 491 kts | 252° |
| 2026-05-07 17:13 | 65.34287 | -57.51445 | 39960 ft | 491 kts | 252° |
| 2026-05-07 17:14 | 65.32464 | -57.67229 | 39960 ft | 491 kts | 252° |
| 2026-05-07 17:14 | 65.30626 | -57.82985 | 39952 ft | 492 kts | 252° |
| 2026-05-07 17:15 | 65.28769 | -57.98739 | 39949 ft | 492 kts | 252° |
| 2026-05-07 17:15 | 65.26908 | -58.14361 | 39947 ft | 492 kts | 251° |
| 2026-05-07 17:16 | 65.25018 | -58.30072 | 39941 ft | 492 kts | 251° |
| 2026-05-07 17:16 | 65.23111 | -58.45765 | 39937 ft | 492 kts | 251° |
| 2026-05-07 17:17 | 65.21268 | -58.60787 | 39935 ft | 492 kts | 251° |
| 2026-05-07 17:17 | 65.19341 | -58.76341 | 39933 ft | 492 kts | 251° |
| 2026-05-07 17:18 | 65.17376 | -58.92049 | 39930 ft | 493 kts | 251° |
| 2026-05-07 17:18 | 65.15412 | -59.07590 | 39925 ft | 493 kts | 251° |
| 2026-05-07 17:19 | 65.13424 | -59.23177 | 39921 ft | 493 kts | 251° |
| 2026-05-07 17:19 | 65.11415 | -59.38776 | 39916 ft | 493 kts | 250° |
| 2026-05-07 17:20 | 65.09390 | -59.54344 | 39915 ft | 493 kts | 250° |
| 2026-05-07 17:20 | 65.07346 | -59.69914 | 39913 ft | 493 kts | 250° |
| 2026-05-07 17:21 | 65.05292 | -59.85422 | 39910 ft | 494 kts | 250° |
| 2026-05-07 17:21 | 65.03219 | -60.00922 | 39907 ft | 494 kts | 250° |
| 2026-05-07 17:22 | 65.01110 | -60.16383 | 39905 ft | 494 kts | 249° |
| 2026-05-07 17:22 | 64.98971 | -60.31733 | 39889 ft | 494 kts | 249° |
| 2026-05-07 17:23 | 64.96810 | -60.47131 | 39902 ft | 494 kts | 249° |
| 2026-05-07 17:23 | 64.94631 | -60.62554 | 39900 ft | 495 kts | 249° |
| 2026-05-07 17:24 | 64.92440 | -60.77941 | 39897 ft | 495 kts | 249° |
| 2026-05-07 17:24 | 64.90235 | -60.93289 | 39891 ft | 495 kts | 249° |
| 2026-05-07 17:25 | 64.88009 | -61.08644 | 39893 ft | 495 kts | 249° |
| 2026-05-07 17:25 | 64.85782 | -61.23877 | 39893 ft | 495 kts | 249° |
| 2026-05-07 17:26 | 64.83527 | -61.39168 | 39886 ft | 495 kts | 248° |
| 2026-05-07 17:26 | 64.81253 | -61.54450 | 39881 ft | 495 kts | 248° |
| 2026-05-07 17:27 | 64.78968 | -61.69679 | 39881 ft | 495 kts | 248° |
| 2026-05-07 17:27 | 64.76871 | -61.83539 | 39872 ft | 495 kts | 248° |
| 2026-05-07 17:28 | 64.74549 | -61.98767 | 39870 ft | 496 kts | 248° |
| 2026-05-07 17:28 | 64.72229 | -62.13852 | 39870 ft | 496 kts | 248° |
| 2026-05-07 17:29 | 64.69878 | -62.29020 | 39868 ft | 496 kts | 248° |
| 2026-05-07 17:29 | 64.67512 | -62.44147 | 39864 ft | 496 kts | 248° |
| 2026-05-07 17:30 | 64.65516 | -62.56816 | 39862 ft | 496 kts | 247° |
| 2026-05-07 17:30 | 64.63134 | -62.71823 | 39857 ft | 496 kts | 247° |
| 2026-05-07 17:31 | 64.60721 | -62.86904 | 39856 ft | 496 kts | 247° |
| 2026-05-07 17:31 | 64.58293 | -63.01951 | 39851 ft | 497 kts | 247° |
| 2026-05-07 17:32 | 64.55841 | -63.17027 | 39846 ft | 497 kts | 247° |
| 2026-05-07 17:32 | 64.53391 | -63.31968 | 39844 ft | 497 kts | 247° |
| 2026-05-07 17:33 | 64.50912 | -63.46965 | 39842 ft | 497 kts | 246° |
| 2026-05-07 17:33 | 64.48414 | -63.61960 | 39836 ft | 497 kts | 246° |
| 2026-05-07 17:34 | 64.45924 | -63.76792 | 39832 ft | 497 kts | 246° |
| 2026-05-07 17:34 | 64.43402 | -63.91695 | 39831 ft | 497 kts | 246° |
| 2026-05-07 17:35 | 64.40862 | -64.06589 | 39825 ft | 497 kts | 246° |
| 2026-05-07 17:35 | 64.38309 | -64.21443 | 39821 ft | 497 kts | 246° |
| 2026-05-07 17:36 | 64.35738 | -64.36284 | 39817 ft | 497 kts | 246° |
| 2026-05-07 17:36 | 64.33152 | -64.51103 | 39815 ft | 498 kts | 246° |
| 2026-05-07 17:37 | 64.30547 | -64.65911 | 39812 ft | 498 kts | 246° |
| 2026-05-07 17:37 | 64.27928 | -64.80689 | 39810 ft | 498 kts | 245° |
| 2026-05-07 17:38 | 64.25311 | -64.95342 | 39808 ft | 498 kts | 245° |
| 2026-05-07 17:38 | 64.22661 | -65.10073 | 39805 ft | 498 kts | 245° |
| 2026-05-07 17:39 | 64.19993 | -65.24790 | 39803 ft | 498 kts | 245° |
| 2026-05-07 17:39 | 64.17331 | -65.39367 | 39801 ft | 498 kts | 245° |
| 2026-05-07 17:40 | 64.14637 | -65.54012 | 39797 ft | 498 kts | 245° |
| 2026-05-07 17:40 | 64.11925 | -65.68647 | 39798 ft | 498 kts | 245° |
| 2026-05-07 17:41 | 64.09200 | -65.83238 | 39792 ft | 498 kts | 245° |
| 2026-05-07 17:41 | 64.06482 | -65.97693 | 39793 ft | 498 kts | 244° |
| 2026-05-07 17:42 | 64.03727 | -66.12236 | 39789 ft | 498 kts | 244° |
| 2026-05-07 17:42 | 64.00959 | -66.26742 | 39783 ft | 498 kts | 244° |
| 2026-05-07 17:43 | 63.98177 | -66.41217 | 39778 ft | 498 kts | 244° |
| 2026-05-07 17:43 | 63.95379 | -66.55670 | 39768 ft | 499 kts | 244° |
| 2026-05-07 17:44 | 63.92569 | -66.70084 | 39761 ft | 499 kts | 244° |
| 2026-05-07 17:44 | 63.89739 | -66.84502 | 39762 ft | 499 kts | 244° |
| 2026-05-07 17:45 | 63.86888 | -66.98749 | 39754 ft | 498 kts | 241° |
| 2026-05-07 17:45 | 63.83579 | -67.12511 | 39756 ft | 497 kts | 238° |
| 2026-05-07 17:46 | 63.80154 | -67.26151 | 39753 ft | 497 kts | 238° |
| 2026-05-07 17:46 | 63.76714 | -67.39714 | 39744 ft | 497 kts | 238° |
| 2026-05-07 17:47 | 63.73289 | -67.53171 | 39740 ft | 497 kts | 238° |
| 2026-05-07 17:47 | 63.69830 | -67.66699 | 39738 ft | 497 kts | 238° |
| 2026-05-07 17:48 | 63.66361 | -67.80199 | 39731 ft | 497 kts | 238° |
| 2026-05-07 17:48 | 63.62878 | -67.93663 | 39727 ft | 497 kts | 238° |
| 2026-05-07 17:49 | 63.59388 | -68.07074 | 39722 ft | 497 kts | 238° |
| 2026-05-07 17:49 | 63.55883 | -68.20465 | 39719 ft | 497 kts | 237° |
| 2026-05-07 17:50 | 63.52368 | -68.33810 | 39717 ft | 497 kts | 237° |
| 2026-05-07 17:50 | 63.48837 | -68.47135 | 39713 ft | 497 kts | 237° |
| 2026-05-07 17:51 | 63.45321 | -68.60327 | 39713 ft | 497 kts | 237° |
| 2026-05-07 17:51 | 63.41767 | -68.73584 | 39705 ft | 497 kts | 237° |
| 2026-05-07 17:52 | 63.38201 | -68.86802 | 39701 ft | 497 kts | 237° |
| 2026-05-07 17:52 | 63.34624 | -68.99985 | 39699 ft | 497 kts | 237° |
| 2026-05-07 17:53 | 63.31031 | -69.13148 | 39698 ft | 497 kts | 236° |
| 2026-05-07 17:53 | 63.27428 | -69.26277 | 39699 ft | 497 kts | 236° |
| 2026-05-07 17:54 | 63.23835 | -69.39291 | 39700 ft | 497 kts | 236° |
| 2026-05-07 17:54 | 63.20214 | -69.52322 | 39699 ft | 497 kts | 236° |
| 2026-05-07 17:55 | 63.16573 | -69.65361 | 39689 ft | 497 kts | 236° |
| 2026-05-07 17:55 | 63.12924 | -69.78349 | 39695 ft | 497 kts | 236° |
| 2026-05-07 17:56 | 63.09264 | -69.91293 | 39690 ft | 497 kts | 235° |
| 2026-05-07 17:56 | 63.05593 | -70.04209 | 39686 ft | 497 kts | 235° |
| 2026-05-07 17:57 | 63.02533 | -70.14924 | 39685 ft | 497 kts | 235° |
| 2026-05-07 17:57 | 62.98218 | -70.29946 | 39671 ft | 497 kts | 235° |
| 2026-05-07 17:58 | 62.94538 | -70.42678 | 39673 ft | 497 kts | 235° |
| 2026-05-07 17:58 | 62.90816 | -70.55471 | 39668 ft | 497 kts | 235° |
| 2026-05-07 17:59 | 62.87084 | -70.68231 | 39666 ft | 496 kts | 235° |
| 2026-05-07 17:59 | 62.83348 | -70.80946 | 39667 ft | 497 kts | 234° |
| 2026-05-07 18:00 | 62.79600 | -70.93627 | 39665 ft | 496 kts | 234° |
| 2026-05-07 18:00 | 62.75835 | -71.06288 | 39653 ft | 496 kts | 234° |
| 2026-05-07 18:01 | 62.72064 | -71.18906 | 39654 ft | 496 kts | 234° |
| 2026-05-07 18:01 | 62.68276 | -71.31504 | 39651 ft | 496 kts | 234° |
| 2026-05-07 18:02 | 62.62606 | -71.50223 | 39646 ft | 496 kts | 234° |
| 2026-05-07 18:03 | 62.58794 | -71.62727 | 39638 ft | 496 kts | 234° |
| 2026-05-07 18:03 | 62.54969 | -71.75209 | 39636 ft | 496 kts | 234° |
| 2026-05-07 18:04 | 62.51127 | -71.87665 | 39629 ft | 496 kts | 234° |
| 2026-05-07 18:04 | 62.47303 | -72.00010 | 39629 ft | 497 kts | 234° |
| 2026-05-07 18:05 | 62.43443 | -72.12398 | 39628 ft | 497 kts | 234° |
| 2026-05-07 18:05 | 62.39574 | -72.24754 | 39618 ft | 497 kts | 233° |
| 2026-05-07 18:06 | 62.35688 | -72.37089 | 39610 ft | 497 kts | 233° |
| 2026-05-07 18:06 | 62.31793 | -72.49392 | 39601 ft | 497 kts | 233° |
| 2026-05-07 18:07 | 62.27916 | -72.61574 | 39595 ft | 497 kts | 233° |
| 2026-05-07 18:07 | 62.24001 | -72.73810 | 39588 ft | 497 kts | 233° |
| 2026-05-07 18:08 | 62.20073 | -72.86014 | 39579 ft | 497 kts | 233° |
| 2026-05-07 18:08 | 62.16138 | -72.98181 | 39577 ft | 497 kts | 233° |
| 2026-05-07 18:09 | 62.12192 | -73.10316 | 39576 ft | 497 kts | 233° |
| 2026-05-07 18:09 | 62.08236 | -73.22417 | 39570 ft | 497 kts | 233° |
| 2026-05-07 18:10 | 62.04268 | -73.34487 | 39567 ft | 497 kts | 233° |
| 2026-05-07 18:10 | 62.00301 | -73.46500 | 39572 ft | 497 kts | 232° |
| 2026-05-07 18:11 | 61.96313 | -73.58497 | 39570 ft | 497 kts | 232° |
| 2026-05-07 18:11 | 61.92307 | -73.70502 | 39570 ft | 497 kts | 232° |
| 2026-05-07 18:12 | 61.88292 | -73.82477 | 39566 ft | 497 kts | 232° |
| 2026-05-07 18:12 | 61.84273 | -73.94381 | 39564 ft | 497 kts | 232° |
| 2026-05-07 18:13 | 61.80258 | -74.06210 | 39569 ft | 497 kts | 232° |
| 2026-05-07 18:13 | 61.76213 | -74.18086 | 39568 ft | 498 kts | 232° |
| 2026-05-07 18:14 | 61.72161 | -74.29923 | 39566 ft | 497 kts | 232° |
| 2026-05-07 18:14 | 61.68100 | -74.41733 | 39566 ft | 498 kts | 232° |
| 2026-05-07 18:15 | 61.64015 | -74.53525 | 39561 ft | 498 kts | 232° |
| 2026-05-07 18:15 | 61.59945 | -74.65218 | 39562 ft | 498 kts | 231° |
| 2026-05-07 18:16 | 61.55843 | -74.76949 | 39561 ft | 498 kts | 231° |
| 2026-05-07 18:16 | 61.51729 | -74.88647 | 39560 ft | 498 kts | 231° |
| 2026-05-07 18:17 | 61.47604 | -75.00317 | 39560 ft | 498 kts | 231° |
| 2026-05-07 18:17 | 61.43492 | -75.11894 | 39556 ft | 498 kts | 231° |
| 2026-05-07 18:18 | 61.39347 | -75.23509 | 39553 ft | 498 kts | 231° |
| 2026-05-07 18:18 | 61.35188 | -75.35106 | 39551 ft | 498 kts | 231° |
| 2026-05-07 18:19 | 61.31731 | -75.44702 | 39547 ft | 498 kts | 231° |
| 2026-05-07 18:19 | 61.27553 | -75.56239 | 39547 ft | 498 kts | 231° |
| 2026-05-07 18:20 | 61.22689 | -75.69598 | 39542 ft | 499 kts | 231° |
| 2026-05-07 18:20 | 61.19173 | -75.79211 | 39538 ft | 499 kts | 231° |
| 2026-05-07 18:21 | 61.14972 | -75.90654 | 39538 ft | 499 kts | 230° |
| 2026-05-07 18:21 | 61.10787 | -76.01994 | 39538 ft | 499 kts | 230° |
| 2026-05-07 18:22 | 61.06570 | -76.13367 | 39537 ft | 499 kts | 230° |
| 2026-05-07 18:22 | 61.02340 | -76.24708 | 39529 ft | 499 kts | 230° |
| 2026-05-07 18:23 | 60.98092 | -76.36044 | 39521 ft | 499 kts | 230° |
| 2026-05-07 18:23 | 60.93840 | -76.47336 | 39525 ft | 499 kts | 230° |
| 2026-05-07 18:24 | 60.89605 | -76.58528 | 39522 ft | 499 kts | 230° |
| 2026-05-07 18:24 | 60.85308 | -76.69829 | 39523 ft | 499 kts | 230° |
| 2026-05-07 18:25 | 60.81054 | -76.80957 | 39517 ft | 499 kts | 230° |
| 2026-05-07 18:25 | 60.76767 | -76.92119 | 39520 ft | 499 kts | 230° |
| 2026-05-07 18:26 | 60.72471 | -77.03249 | 39517 ft | 499 kts | 230° |
| 2026-05-07 18:26 | 60.68160 | -77.14369 | 39516 ft | 499 kts | 230° |
| 2026-05-07 18:27 | 60.63840 | -77.25463 | 39509 ft | 499 kts | 230° |
| 2026-05-07 18:27 | 60.59517 | -77.36510 | 39509 ft | 499 kts | 230° |
| 2026-05-07 18:28 | 60.55172 | -77.47561 | 39509 ft | 499 kts | 229° |
| 2026-05-07 18:28 | 60.50850 | -77.58496 | 39504 ft | 499 kts | 229° |
| 2026-05-07 18:29 | 60.46495 | -77.69466 | 39501 ft | 499 kts | 229° |
| 2026-05-07 18:29 | 60.42127 | -77.80416 | 39502 ft | 499 kts | 229° |
| 2026-05-07 18:30 | 60.37750 | -77.91334 | 39502 ft | 499 kts | 229° |
| 2026-05-07 18:30 | 60.33396 | -78.02146 | 39502 ft | 499 kts | 229° |
| 2026-05-07 18:31 | 60.28994 | -78.13022 | 39502 ft | 499 kts | 229° |
| 2026-05-07 18:31 | 60.24591 | -78.23850 | 39503 ft | 499 kts | 229° |
| 2026-05-07 18:32 | 60.20181 | -78.34650 | 39501 ft | 499 kts | 229° |
| 2026-05-07 18:32 | 60.15756 | -78.45436 | 39497 ft | 499 kts | 229° |
| 2026-05-07 18:33 | 60.11360 | -78.56098 | 39498 ft | 499 kts | 229° |
| 2026-05-07 18:33 | 60.06916 | -78.66826 | 39499 ft | 500 kts | 229° |
| 2026-05-07 18:34 | 60.02466 | -78.77523 | 39481 ft | 499 kts | 229° |
| 2026-05-07 18:34 | 59.98012 | -78.88183 | 39486 ft | 500 kts | 229° |
| 2026-05-07 18:35 | 59.93547 | -78.98813 | 39485 ft | 499 kts | 229° |
| 2026-05-07 18:35 | 59.89062 | -79.09392 | 39501 ft | 499 kts | 228° |
| 2026-05-07 18:36 | 59.84596 | -79.19903 | 39501 ft | 499 kts | 228° |
| 2026-05-07 18:36 | 59.80096 | -79.30438 | 39491 ft | 499 kts | 228° |
| 2026-05-07 18:37 | 59.75596 | -79.40932 | 39491 ft | 500 kts | 228° |
| 2026-05-07 18:37 | 59.71088 | -79.51425 | 39491 ft | 500 kts | 229° |
| 2026-05-07 18:38 | 59.66581 | -79.61920 | 39495 ft | 500 kts | 229° |
| 2026-05-07 18:38 | 59.62064 | -79.72385 | 39497 ft | 500 kts | 228° |
| 2026-05-07 18:39 | 59.57523 | -79.82773 | 39496 ft | 500 kts | 228° |
| 2026-05-07 18:39 | 59.52993 | -79.93154 | 39496 ft | 500 kts | 228° |
| 2026-05-07 18:40 | 59.48664 | -80.03749 | 39498 ft | 500 kts | 233° |
| 2026-05-07 18:40 | 59.44586 | -80.14836 | 39495 ft | 500 kts | 233° |
| 2026-05-07 18:41 | 59.40544 | -80.25965 | 39496 ft | 500 kts | 233° |
| 2026-05-07 18:41 | 59.36494 | -80.37060 | 39497 ft | 500 kts | 233° |
| 2026-05-07 18:42 | 59.32427 | -80.48118 | 39502 ft | 500 kts | 233° |
| 2026-05-07 18:42 | 59.28348 | -80.59145 | 39504 ft | 500 kts | 233° |
| 2026-05-07 18:43 | 59.24259 | -80.70148 | 39503 ft | 500 kts | 233° |
| 2026-05-07 18:43 | 59.20159 | -80.81130 | 39500 ft | 500 kts | 233° |
| 2026-05-07 18:44 | 59.16052 | -80.92079 | 39502 ft | 500 kts | 233° |
| 2026-05-07 18:44 | 59.11938 | -81.02996 | 39505 ft | 500 kts | 233° |
| 2026-05-07 18:45 | 59.07801 | -81.13922 | 39508 ft | 500 kts | 233° |
| 2026-05-07 18:45 | 59.03694 | -81.24720 | 39507 ft | 500 kts | 233° |
| 2026-05-07 18:46 | 58.99547 | -81.35572 | 39510 ft | 500 kts | 233° |
| 2026-05-07 18:46 | 58.95387 | -81.46410 | 39509 ft | 500 kts | 233° |
| 2026-05-07 18:47 | 58.91223 | -81.57207 | 39510 ft | 500 kts | 233° |
| 2026-05-07 18:47 | 58.87047 | -81.67988 | 39510 ft | 500 kts | 232° |
| 2026-05-07 18:48 | 58.82866 | -81.78734 | 39511 ft | 500 kts | 232° |
| 2026-05-07 18:48 | 58.78702 | -81.89385 | 39518 ft | 500 kts | 232° |
| 2026-05-07 18:49 | 58.74506 | -82.00070 | 39519 ft | 500 kts | 232° |
| 2026-05-07 18:49 | 58.70290 | -82.10759 | 39523 ft | 500 kts | 232° |
| 2026-05-07 18:50 | 58.66076 | -82.21393 | 39523 ft | 500 kts | 232° |
| 2026-05-07 18:50 | 58.61848 | -82.32015 | 39527 ft | 500 kts | 232° |
| 2026-05-07 18:51 | 58.57617 | -82.42600 | 39528 ft | 500 kts | 232° |
| 2026-05-07 18:51 | 58.53374 | -82.53163 | 39528 ft | 500 kts | 232° |
| 2026-05-07 18:52 | 58.49132 | -82.63681 | 39532 ft | 500 kts | 232° |
| 2026-05-07 18:52 | 58.44897 | -82.74132 | 39535 ft | 500 kts | 232° |
| 2026-05-07 18:53 | 58.40635 | -82.84603 | 39538 ft | 500 kts | 232° |
| 2026-05-07 18:53 | 58.36350 | -82.95087 | 39540 ft | 500 kts | 232° |
| 2026-05-07 18:54 | 58.32068 | -83.05514 | 39542 ft | 500 kts | 232° |
| 2026-05-07 18:54 | 58.27782 | -83.15908 | 39543 ft | 500 kts | 232° |
| 2026-05-07 18:55 | 58.23476 | -83.26302 | 39547 ft | 500 kts | 232° |
| 2026-05-07 18:55 | 58.19168 | -83.36657 | 39551 ft | 500 kts | 232° |
| 2026-05-07 18:56 | 58.14878 | -83.46925 | 39557 ft | 500 kts | 231° |
| 2026-05-07 18:56 | 58.10557 | -83.57219 | 39560 ft | 500 kts | 231° |
| 2026-05-07 18:57 | 58.06220 | -83.67508 | 39560 ft | 500 kts | 231° |
| 2026-05-07 18:57 | 58.01881 | -83.77759 | 39565 ft | 500 kts | 231° |
| 2026-05-07 18:58 | 57.97528 | -83.87994 | 39567 ft | 500 kts | 231° |
| 2026-05-07 18:58 | 57.93161 | -83.98222 | 39574 ft | 500 kts | 231° |
| 2026-05-07 18:59 | 57.88788 | -84.08422 | 39573 ft | 500 kts | 231° |
| 2026-05-07 18:59 | 57.84442 | -84.18513 | 39580 ft | 500 kts | 231° |
| 2026-05-07 19:00 | 57.80060 | -84.28644 | 39584 ft | 500 kts | 231° |
| 2026-05-07 19:00 | 57.75664 | -84.38762 | 39587 ft | 500 kts | 231° |
| 2026-05-07 19:01 | 57.71269 | -84.48839 | 39592 ft | 500 kts | 231° |
| 2026-05-07 19:01 | 57.66851 | -84.58922 | 39596 ft | 500 kts | 231° |
| 2026-05-07 19:02 | 57.62437 | -84.68956 | 39599 ft | 500 kts | 231° |
| 2026-05-07 19:02 | 57.58038 | -84.78913 | 39597 ft | 500 kts | 231° |
| 2026-05-07 19:03 | 57.53610 | -84.88894 | 39605 ft | 500 kts | 231° |
| 2026-05-07 19:03 | 57.49158 | -84.98885 | 39609 ft | 500 kts | 231° |
| 2026-05-07 19:04 | 57.44706 | -85.08835 | 39608 ft | 500 kts | 231° |
| 2026-05-07 19:04 | 57.40248 | -85.18756 | 39622 ft | 500 kts | 231° |
| 2026-05-07 19:05 | 57.35775 | -85.28628 | 39625 ft | 500 kts | 230° |
| 2026-05-07 19:05 | 57.32055 | -85.36816 | 39629 ft | 500 kts | 230° |
| 2026-05-07 19:06 | 57.26840 | -85.48278 | 39633 ft | 500 kts | 230° |
| 2026-05-07 19:06 | 57.20863 | -85.61358 | 39638 ft | 500 kts | 230° |
| 2026-05-07 19:07 | 57.16367 | -85.71149 | 39642 ft | 500 kts | 230° |
| 2026-05-07 19:07 | 57.11861 | -85.80921 | 39646 ft | 500 kts | 230° |
| 2026-05-07 19:08 | 57.07347 | -85.90678 | 39642 ft | 500 kts | 230° |
| 2026-05-07 19:08 | 57.02823 | -86.00415 | 39647 ft | 500 kts | 230° |
| 2026-05-07 19:09 | 56.98295 | -86.10122 | 39653 ft | 500 kts | 230° |
| 2026-05-07 19:09 | 56.93783 | -86.19752 | 39663 ft | 500 kts | 230° |
| 2026-05-07 19:10 | 56.89240 | -86.29405 | 39659 ft | 500 kts | 230° |
| 2026-05-07 19:10 | 56.84684 | -86.39040 | 39660 ft | 500 kts | 230° |
| 2026-05-07 19:11 | 56.80127 | -86.48651 | 39664 ft | 500 kts | 230° |
| 2026-05-07 19:11 | 56.75564 | -86.58236 | 39668 ft | 500 kts | 230° |
| 2026-05-07 19:12 | 56.70991 | -86.67796 | 39671 ft | 500 kts | 230° |
| 2026-05-07 19:12 | 56.66414 | -86.77323 | 39674 ft | 500 kts | 230° |
| 2026-05-07 19:13 | 56.61845 | -86.86792 | 39678 ft | 500 kts | 230° |
| 2026-05-07 19:13 | 56.57255 | -86.96272 | 39682 ft | 500 kts | 230° |
| 2026-05-07 19:14 | 56.52649 | -87.05746 | 39676 ft | 501 kts | 230° |
| 2026-05-07 19:14 | 56.48032 | -87.15203 | 39682 ft | 501 kts | 229° |
| 2026-05-07 19:15 | 56.43418 | -87.24618 | 39684 ft | 501 kts | 229° |
| 2026-05-07 19:15 | 56.38787 | -87.34030 | 39685 ft | 501 kts | 229° |
| 2026-05-07 19:16 | 56.34151 | -87.43414 | 39679 ft | 501 kts | 229° |
| 2026-05-07 19:16 | 56.29528 | -87.52735 | 39698 ft | 501 kts | 229° |
| 2026-05-07 19:17 | 56.24875 | -87.62079 | 39683 ft | 501 kts | 229° |
| 2026-05-07 19:17 | 56.20215 | -87.71399 | 39686 ft | 501 kts | 229° |
| 2026-05-07 19:18 | 56.15545 | -87.80701 | 39683 ft | 501 kts | 229° |
| 2026-05-07 19:18 | 56.10864 | -87.89996 | 39696 ft | 502 kts | 229° |
| 2026-05-07 19:19 | 56.06178 | -87.99260 | 39698 ft | 502 kts | 229° |
| 2026-05-07 19:19 | 56.01479 | -88.08514 | 39698 ft | 502 kts | 229° |
| 2026-05-07 19:20 | 55.96807 | -88.17676 | 39696 ft | 502 kts | 229° |
| 2026-05-07 19:20 | 55.92096 | -88.26879 | 39704 ft | 502 kts | 229° |
| 2026-05-07 19:21 | 55.87374 | -88.36069 | 39703 ft | 502 kts | 229° |
| 2026-05-07 19:21 | 55.82649 | -88.45236 | 39708 ft | 502 kts | 229° |
| 2026-05-07 19:22 | 55.77908 | -88.54390 | 39708 ft | 503 kts | 229° |
| 2026-05-07 19:22 | 55.73162 | -88.63529 | 39707 ft | 503 kts | 229° |
| 2026-05-07 19:23 | 55.68408 | -88.72636 | 39714 ft | 503 kts | 229° |
| 2026-05-07 19:23 | 55.63686 | -88.81651 | 39713 ft | 503 kts | 229° |
| 2026-05-07 19:24 | 55.58918 | -88.90716 | 39718 ft | 503 kts | 229° |
| 2026-05-07 19:24 | 55.54144 | -88.99761 | 39720 ft | 503 kts | 229° |
| 2026-05-07 19:25 | 55.49363 | -89.08790 | 39724 ft | 503 kts | 229° |
| 2026-05-07 19:25 | 55.44577 | -89.17788 | 39722 ft | 503 kts | 229° |
| 2026-05-07 19:26 | 55.39777 | -89.26777 | 39725 ft | 503 kts | 229° |
| 2026-05-07 19:26 | 55.35006 | -89.35683 | 39729 ft | 503 kts | 228° |
| 2026-05-07 19:27 | 55.30203 | -89.44609 | 39729 ft | 503 kts | 228° |
| 2026-05-07 19:27 | 55.25375 | -89.53552 | 39736 ft | 503 kts | 228° |
| 2026-05-07 19:28 | 55.20555 | -89.62445 | 39735 ft | 503 kts | 228° |
| 2026-05-07 19:28 | 55.15723 | -89.71321 | 39738 ft | 503 kts | 228° |
| 2026-05-07 19:29 | 55.10915 | -89.80123 | 39741 ft | 503 kts | 228° |
| 2026-05-07 19:29 | 55.06066 | -89.88972 | 39740 ft | 503 kts | 228° |
| 2026-05-07 19:30 | 55.01206 | -89.97788 | 39737 ft | 504 kts | 227° |
| 2026-05-07 19:30 | 54.95872 | -90.05762 | 39746 ft | 505 kts | 220° |
| 2026-05-07 19:31 | 54.90404 | -90.13324 | 39750 ft | 505 kts | 220° |
| 2026-05-07 19:31 | 54.84866 | -90.20875 | 39750 ft | 505 kts | 220° |
| 2026-05-07 19:32 | 54.79335 | -90.28413 | 39751 ft | 505 kts | 220° |
| 2026-05-07 19:32 | 54.73804 | -90.35948 | 39752 ft | 506 kts | 220° |
| 2026-05-07 19:33 | 54.68273 | -90.43466 | 39756 ft | 506 kts | 220° |
| 2026-05-07 19:33 | 54.62766 | -90.50922 | 39760 ft | 506 kts | 220° |
| 2026-05-07 19:34 | 54.57221 | -90.58403 | 39762 ft | 506 kts | 220° |
| 2026-05-07 19:34 | 54.51667 | -90.65868 | 39761 ft | 506 kts | 220° |
| 2026-05-07 19:35 | 54.46112 | -90.73308 | 39767 ft | 506 kts | 220° |
| 2026-05-07 19:35 | 54.40553 | -90.80728 | 39766 ft | 505 kts | 219° |
| 2026-05-07 19:36 | 54.35037 | -90.88065 | 39767 ft | 505 kts | 219° |
| 2026-05-07 19:36 | 54.29467 | -90.95446 | 39773 ft | 505 kts | 219° |
| 2026-05-07 19:37 | 54.23899 | -91.02800 | 39773 ft | 505 kts | 219° |
| 2026-05-07 19:37 | 54.18329 | -91.10129 | 39775 ft | 505 kts | 219° |
| 2026-05-07 19:38 | 54.12747 | -91.17451 | 39782 ft | 505 kts | 219° |
| 2026-05-07 19:38 | 54.07164 | -91.24748 | 39781 ft | 505 kts | 219° |
| 2026-05-07 19:39 | 54.01584 | -91.32015 | 39784 ft | 505 kts | 219° |
| 2026-05-07 19:39 | 53.95993 | -91.39273 | 39787 ft | 505 kts | 219° |
| 2026-05-07 19:40 | 53.90437 | -91.46459 | 39789 ft | 505 kts | 219° |
| 2026-05-07 19:40 | 53.84823 | -91.53694 | 39794 ft | 505 kts | 219° |
| 2026-05-07 19:41 | 53.79239 | -91.60866 | 39794 ft | 506 kts | 219° |
| 2026-05-07 19:41 | 53.73626 | -91.68052 | 39793 ft | 506 kts | 219° |
| 2026-05-07 19:42 | 53.68009 | -91.75218 | 39790 ft | 506 kts | 219° |
| 2026-05-07 19:42 | 53.62395 | -91.82356 | 39780 ft | 506 kts | 219° |
| 2026-05-07 19:43 | 53.56768 | -91.89484 | 39775 ft | 506 kts | 219° |
| 2026-05-07 19:43 | 53.51138 | -91.96594 | 39775 ft | 506 kts | 219° |
| 2026-05-07 19:44 | 53.45500 | -92.03689 | 39779 ft | 506 kts | 219° |
| 2026-05-07 19:44 | 53.39870 | -92.10750 | 39788 ft | 506 kts | 219° |
| 2026-05-07 19:45 | 53.34228 | -92.17802 | 39800 ft | 505 kts | 219° |
| 2026-05-07 19:45 | 53.28616 | -92.24793 | 39816 ft | 505 kts | 219° |
| 2026-05-07 19:46 | 53.22974 | -92.31797 | 39823 ft | 505 kts | 219° |
| 2026-05-07 19:46 | 53.17321 | -92.38792 | 39825 ft | 505 kts | 219° |
| 2026-05-07 19:47 | 53.11668 | -92.45763 | 39832 ft | 505 kts | 219° |
| 2026-05-07 19:47 | 53.06013 | -92.52713 | 39832 ft | 505 kts | 219° |
| 2026-05-07 19:48 | 53.00357 | -92.59641 | 39830 ft | 505 kts | 219° |
| 2026-05-07 19:48 | 52.94691 | -92.66559 | 39848 ft | 505 kts | 219° |
| 2026-05-07 19:49 | 52.89025 | -92.73455 | 39834 ft | 505 kts | 219° |
| 2026-05-07 19:49 | 52.83391 | -92.80287 | 39838 ft | 505 kts | 219° |
| 2026-05-07 19:50 | 52.77711 | -92.87154 | 39844 ft | 505 kts | 219° |
| 2026-05-07 19:50 | 52.72032 | -92.93996 | 39843 ft | 505 kts | 219° |
| 2026-05-07 19:51 | 52.66387 | -93.00775 | 39845 ft | 505 kts | 218° |
| 2026-05-07 19:51 | 52.60704 | -93.07577 | 39834 ft | 505 kts | 218° |
| 2026-05-07 19:52 | 52.55008 | -93.14373 | 39838 ft | 504 kts | 218° |
| 2026-05-07 19:52 | 52.49323 | -93.21134 | 39847 ft | 504 kts | 218° |
| 2026-05-07 19:53 | 52.44596 | -93.26737 | 39845 ft | 504 kts | 218° |
| 2026-05-07 19:53 | 52.38906 | -93.33463 | 39852 ft | 504 kts | 218° |
| 2026-05-07 19:54 | 52.33213 | -93.40171 | 39848 ft | 504 kts | 218° |
| 2026-05-07 19:54 | 52.27523 | -93.46854 | 39854 ft | 504 kts | 218° |
| 2026-05-07 19:55 | 52.21817 | -93.53534 | 39858 ft | 504 kts | 218° |
| 2026-05-07 19:55 | 52.16114 | -93.60190 | 39863 ft | 504 kts | 218° |
| 2026-05-07 19:56 | 52.10514 | -93.66701 | 39867 ft | 503 kts | 218° |
| 2026-05-07 19:56 | 52.04805 | -93.73319 | 39870 ft | 503 kts | 218° |
| 2026-05-07 19:57 | 51.99095 | -93.79919 | 39875 ft | 503 kts | 218° |
| 2026-05-07 19:57 | 51.93384 | -93.86500 | 39878 ft | 503 kts | 218° |
| 2026-05-07 19:58 | 51.87669 | -93.93063 | 39879 ft | 503 kts | 218° |
| 2026-05-07 19:58 | 51.81960 | -93.99599 | 39888 ft | 503 kts | 218° |
| 2026-05-07 19:59 | 51.76470 | -94.05863 | 39897 ft | 503 kts | 218° |
| 2026-05-07 19:59 | 51.70749 | -94.12372 | 39892 ft | 503 kts | 218° |
| 2026-05-07 20:00 | 51.66570 | -94.17114 | 39881 ft | 502 kts | 218° |
| 2026-05-07 20:00 | 51.61273 | -94.23107 | 39894 ft | 502 kts | 218° |
| 2026-05-07 20:01 | 51.55545 | -94.29570 | 39888 ft | 502 kts | 218° |
| 2026-05-07 20:01 | 51.49815 | -94.36013 | 39888 ft | 502 kts | 218° |
| 2026-05-07 20:02 | 51.44082 | -94.42441 | 39893 ft | 502 kts | 218° |
| 2026-05-07 20:02 | 51.38388 | -94.48806 | 39895 ft | 502 kts | 218° |
| 2026-05-07 20:03 | 51.32647 | -94.55202 | 39898 ft | 502 kts | 218° |
| 2026-05-07 20:03 | 51.26901 | -94.61585 | 39900 ft | 502 kts | 218° |
| 2026-05-07 20:04 | 51.21157 | -94.67944 | 39903 ft | 502 kts | 218° |
| 2026-05-07 20:04 | 51.15409 | -94.74291 | 39908 ft | 502 kts | 218° |
| 2026-05-07 20:05 | 51.09704 | -94.80569 | 39907 ft | 502 kts | 218° |
| 2026-05-07 20:05 | 51.03941 | -94.86891 | 39908 ft | 502 kts | 218° |
| 2026-05-07 20:06 | 50.98184 | -94.93187 | 39910 ft | 502 kts | 218° |
| 2026-05-07 20:06 | 50.92422 | -94.99470 | 39911 ft | 502 kts | 218° |
| 2026-05-07 20:07 | 50.86655 | -95.05741 | 39911 ft | 502 kts | 218° |
| 2026-05-07 20:07 | 50.80895 | -95.11984 | 39915 ft | 502 kts | 218° |
| 2026-05-07 20:08 | 50.75162 | -95.18179 | 39917 ft | 502 kts | 218° |
| 2026-05-07 20:08 | 50.69392 | -95.24392 | 39917 ft | 502 kts | 218° |
| 2026-05-07 20:09 | 50.63626 | -95.30584 | 39919 ft | 502 kts | 218° |
| 2026-05-07 20:10 | 50.54951 | -95.39866 | 39926 ft | 502 kts | 218° |
| 2026-05-07 20:10 | 50.49212 | -95.45982 | 39928 ft | 502 kts | 218° |
| 2026-05-07 20:11 | 50.43428 | -95.52128 | 39926 ft | 502 kts | 218° |
| 2026-05-07 20:11 | 50.37642 | -95.58258 | 39926 ft | 502 kts | 218° |
| 2026-05-07 20:12 | 50.31859 | -95.64367 | 39928 ft | 502 kts | 218° |
| 2026-05-07 20:12 | 50.26063 | -95.70473 | 39928 ft | 502 kts | 217° |
| 2026-05-07 20:13 | 50.20274 | -95.76551 | 39925 ft | 502 kts | 217° |
| 2026-05-07 20:13 | 50.14499 | -95.82597 | 39921 ft | 501 kts | 217° |
| 2026-05-07 20:14 | 50.08696 | -95.88654 | 39921 ft | 501 kts | 217° |
| 2026-05-07 20:14 | 50.02894 | -95.94692 | 39910 ft | 501 kts | 217° |
| 2026-05-07 20:15 | 49.97081 | -96.00724 | 39922 ft | 501 kts | 217° |
| 2026-05-07 20:15 | 49.91274 | -96.06731 | 39919 ft | 501 kts | 217° |
| 2026-05-07 20:16 | 49.85499 | -96.12689 | 39914 ft | 501 kts | 217° |
| 2026-05-07 20:16 | 49.79694 | -96.18661 | 39915 ft | 501 kts | 217° |
| 2026-05-07 20:17 | 49.73879 | -96.24625 | 39911 ft | 501 kts | 217° |
| 2026-05-07 20:17 | 49.68071 | -96.30564 | 39912 ft | 500 kts | 217° |
| 2026-05-07 20:18 | 49.62251 | -96.36498 | 39913 ft | 500 kts | 217° |
| 2026-05-07 20:18 | 49.56431 | -96.42415 | 39913 ft | 500 kts | 217° |
| 2026-05-07 20:19 | 49.50654 | -96.48271 | 39917 ft | 500 kts | 217° |
| 2026-05-07 20:19 | 49.44894 | -96.54093 | 39914 ft | 500 kts | 217° |
| 2026-05-07 20:20 | 49.39077 | -96.59956 | 39919 ft | 500 kts | 217° |
| 2026-05-07 20:20 | 49.33252 | -96.65810 | 39923 ft | 500 kts | 217° |
| 2026-05-07 20:21 | 49.27472 | -96.71602 | 39923 ft | 500 kts | 217° |
| 2026-05-07 20:21 | 49.21631 | -96.77438 | 39926 ft | 500 kts | 217° |
| 2026-05-07 20:22 | 49.15798 | -96.83251 | 39923 ft | 500 kts | 217° |
| 2026-05-07 20:22 | 49.10002 | -96.89011 | 39920 ft | 500 kts | 217° |
| 2026-05-07 20:23 | 49.04167 | -96.94793 | 39912 ft | 500 kts | 217° |
| 2026-05-07 20:23 | 48.98329 | -97.00559 | 39902 ft | 500 kts | 217° |
| 2026-05-07 20:24 | 48.92487 | -97.06315 | 39892 ft | 499 kts | 217° |
| 2026-05-07 20:24 | 48.86651 | -97.12049 | 39898 ft | 499 kts | 217° |
| 2026-05-07 20:25 | 48.80922 | -97.17994 | 39892 ft | 497 kts | 220° |
| 2026-05-07 20:25 | 48.75309 | -97.24126 | 39887 ft | 497 kts | 220° |
| 2026-05-07 20:26 | 48.69718 | -97.30183 | 39891 ft | 497 kts | 220° |
| 2026-05-07 20:26 | 48.64066 | -97.36222 | 39894 ft | 497 kts | 219° |
| 2026-05-07 20:27 | 48.58405 | -97.42227 | 39895 ft | 497 kts | 219° |
| 2026-05-07 20:27 | 48.52745 | -97.48213 | 39895 ft | 496 kts | 219° |
| 2026-05-07 20:28 | 48.47084 | -97.54187 | 39892 ft | 496 kts | 219° |
| 2026-05-07 20:28 | 48.41453 | -97.60113 | 39897 ft | 496 kts | 219° |
| 2026-05-07 20:29 | 48.35796 | -97.66051 | 39892 ft | 496 kts | 219° |
| 2026-05-07 20:29 | 48.30318 | -97.71786 | 39893 ft | 496 kts | 219° |
| 2026-05-07 20:30 | 48.24661 | -97.77691 | 39894 ft | 495 kts | 219° |
| 2026-05-07 20:30 | 48.18999 | -97.83587 | 39893 ft | 495 kts | 219° |
| 2026-05-07 20:31 | 48.13339 | -97.89463 | 39892 ft | 494 kts | 219° |
| 2026-05-07 20:31 | 48.07716 | -97.95285 | 39897 ft | 494 kts | 219° |
| 2026-05-07 20:32 | 48.02062 | -98.01125 | 39897 ft | 493 kts | 219° |
| 2026-05-07 20:32 | 47.96402 | -98.06954 | 39894 ft | 493 kts | 219° |
| 2026-05-07 20:33 | 47.90756 | -98.12753 | 39899 ft | 493 kts | 219° |
| 2026-05-07 20:33 | 47.85102 | -98.18544 | 39897 ft | 492 kts | 219° |
| 2026-05-07 20:34 | 47.79461 | -98.24307 | 39901 ft | 492 kts | 219° |
| 2026-05-07 20:34 | 47.73816 | -98.30057 | 39899 ft | 492 kts | 219° |
| 2026-05-07 20:35 | 47.68173 | -98.35792 | 39907 ft | 491 kts | 219° |
| 2026-05-07 20:35 | 47.62525 | -98.41514 | 39912 ft | 491 kts | 219° |
| 2026-05-07 20:36 | 47.56918 | -98.47182 | 39910 ft | 491 kts | 219° |
| 2026-05-07 20:36 | 47.51279 | -98.52867 | 39916 ft | 490 kts | 219° |
| 2026-05-07 20:37 | 47.45628 | -98.58548 | 39909 ft | 490 kts | 219° |
| 2026-05-07 20:37 | 47.39986 | -98.64205 | 39911 ft | 489 kts | 219° |
| 2026-05-07 20:38 | 47.34341 | -98.69851 | 39916 ft | 489 kts | 219° |
| 2026-05-07 20:38 | 47.28705 | -98.75473 | 39914 ft | 489 kts | 219° |
| 2026-05-07 20:39 | 47.23103 | -98.81045 | 39914 ft | 489 kts | 219° |
| 2026-05-07 20:39 | 47.17463 | -98.86642 | 39905 ft | 488 kts | 219° |
| 2026-05-07 20:40 | 47.12781 | -98.91276 | 39905 ft | 488 kts | 219° |
| 2026-05-07 20:40 | 47.07151 | -98.96836 | 39905 ft | 487 kts | 219° |
| 2026-05-07 20:41 | 47.00612 | -99.03275 | 39911 ft | 486 kts | 219° |
| 2026-05-07 20:41 | 46.95902 | -99.07901 | 39914 ft | 486 kts | 219° |
| 2026-05-07 20:42 | 46.90282 | -99.13409 | 39914 ft | 486 kts | 219° |
| 2026-05-07 20:42 | 46.84699 | -99.18866 | 39915 ft | 486 kts | 219° |
| 2026-05-07 20:43 | 46.79078 | -99.24346 | 39918 ft | 485 kts | 219° |
| 2026-05-07 20:43 | 46.73458 | -99.29812 | 39917 ft | 485 kts | 219° |
| 2026-05-07 20:44 | 46.67842 | -99.35259 | 39917 ft | 485 kts | 219° |
| 2026-05-07 20:44 | 46.62221 | -99.40698 | 39918 ft | 485 kts | 219° |
| 2026-05-07 20:45 | 46.56593 | -99.46130 | 39916 ft | 484 kts | 219° |
| 2026-05-07 20:45 | 46.50983 | -99.51530 | 39912 ft | 484 kts | 219° |
| 2026-05-07 20:46 | 46.45363 | -99.56926 | 39914 ft | 484 kts | 219° |
| 2026-05-07 20:46 | 46.39745 | -99.62305 | 39911 ft | 484 kts | 219° |
| 2026-05-07 20:47 | 46.34163 | -99.67638 | 39915 ft | 483 kts | 219° |
| 2026-05-07 20:47 | 46.28549 | -99.72990 | 39913 ft | 483 kts | 219° |
| 2026-05-07 20:48 | 46.22935 | -99.78327 | 39908 ft | 483 kts | 219° |
| 2026-05-07 20:48 | 46.17317 | -99.83655 | 39910 ft | 483 kts | 219° |
| 2026-05-07 20:49 | 46.11709 | -99.88960 | 39914 ft | 482 kts | 219° |
| 2026-05-07 20:49 | 46.06090 | -99.94262 | 39912 ft | 482 kts | 219° |
| 2026-05-07 20:50 | 46.00483 | -99.99541 | 39911 ft | 482 kts | 218° |
| 2026-05-07 20:50 | 45.94772 | -100.04631 | 39903 ft | 484 kts | 216° |
| 2026-05-07 20:51 | 45.88960 | -100.09392 | 39901 ft | 484 kts | 215° |
| 2026-05-07 20:51 | 45.83110 | -100.14181 | 39902 ft | 483 kts | 215° |
| 2026-05-07 20:52 | 45.77277 | -100.19017 | 39896 ft | 483 kts | 216° |
| 2026-05-07 20:52 | 45.71476 | -100.23849 | 39893 ft | 482 kts | 216° |
| 2026-05-07 20:53 | 45.65670 | -100.28678 | 39888 ft | 482 kts | 215° |
| 2026-05-07 20:53 | 45.59864 | -100.33490 | 39885 ft | 482 kts | 215° |
| 2026-05-07 20:54 | 45.54090 | -100.38262 | 39885 ft | 482 kts | 215° |
| 2026-05-07 20:54 | 45.48276 | -100.43056 | 39883 ft | 482 kts | 215° |
| 2026-05-07 20:55 | 45.42470 | -100.47833 | 39883 ft | 482 kts | 215° |
| 2026-05-07 20:55 | 45.36660 | -100.52600 | 39889 ft | 482 kts | 215° |
| 2026-05-07 20:56 | 45.30853 | -100.57353 | 39894 ft | 482 kts | 215° |
| 2026-05-07 20:56 | 45.25038 | -100.62103 | 39902 ft | 482 kts | 215° |
| 2026-05-07 20:57 | 45.19265 | -100.66806 | 39905 ft | 482 kts | 215° |
| 2026-05-07 20:57 | 45.13451 | -100.71532 | 39904 ft | 482 kts | 215° |
| 2026-05-07 20:58 | 45.07634 | -100.76249 | 39907 ft | 482 kts | 215° |
| 2026-05-07 20:58 | 45.01816 | -100.80956 | 39907 ft | 481 kts | 214° |
| 2026-05-07 20:59 | 44.95997 | -100.85653 | 39910 ft | 481 kts | 214° |
| 2026-05-07 20:59 | 44.90175 | -100.90340 | 39913 ft | 481 kts | 214° |
| 2026-05-07 21:00 | 44.84356 | -100.95014 | 39913 ft | 481 kts | 214° |
| 2026-05-07 21:00 | 44.78574 | -100.99648 | 39914 ft | 481 kts | 214° |
| 2026-05-07 21:01 | 44.72741 | -101.04312 | 39908 ft | 481 kts | 214° |
| 2026-05-07 21:01 | 44.66916 | -101.08958 | 39919 ft | 481 kts | 214° |
| 2026-05-07 21:02 | 44.61096 | -101.13590 | 39913 ft | 481 kts | 214° |
| 2026-05-07 21:02 | 44.55274 | -101.18213 | 39913 ft | 481 kts | 214° |
| 2026-05-07 21:03 | 44.49478 | -101.22804 | 39914 ft | 481 kts | 214° |
| 2026-05-07 21:03 | 44.43656 | -101.27404 | 39909 ft | 481 kts | 214° |
| 2026-05-07 21:04 | 44.37822 | -101.32004 | 39903 ft | 481 kts | 214° |
| 2026-05-07 21:04 | 44.31987 | -101.36594 | 39907 ft | 481 kts | 214° |
| 2026-05-07 21:05 | 44.26147 | -101.41178 | 39909 ft | 481 kts | 214° |
| 2026-05-07 21:05 | 44.20304 | -101.45753 | 39899 ft | 481 kts | 214° |
| 2026-05-07 21:06 | 44.14449 | -101.50328 | 39894 ft | 482 kts | 214° |
| 2026-05-07 21:06 | 44.08595 | -101.54890 | 39895 ft | 482 kts | 214° |
| 2026-05-07 21:07 | 44.02775 | -101.59417 | 39894 ft | 482 kts | 214° |
| 2026-05-07 21:07 | 43.96917 | -101.63961 | 39892 ft | 483 kts | 214° |
| 2026-05-07 21:08 | 43.91043 | -101.68508 | 39897 ft | 483 kts | 214° |
| 2026-05-07 21:08 | 43.85174 | -101.73042 | 39902 ft | 483 kts | 214° |
| 2026-05-07 21:09 | 43.79294 | -101.77573 | 39907 ft | 483 kts | 214° |
| 2026-05-07 21:09 | 43.73413 | -101.82094 | 39910 ft | 483 kts | 214° |
| 2026-05-07 21:10 | 43.67534 | -101.86604 | 39913 ft | 483 kts | 214° |
| 2026-05-07 21:10 | 43.61688 | -101.91079 | 39914 ft | 483 kts | 214° |
| 2026-05-07 21:11 | 43.55799 | -101.95577 | 39919 ft | 483 kts | 214° |
| 2026-05-07 21:11 | 43.46893 | -102.02166 | 39923 ft | 487 kts | 209° |
| 2026-05-07 21:12 | 43.40660 | -102.05886 | 39916 ft | 488 kts | 208° |
| 2026-05-07 21:12 | 43.34443 | -102.09654 | 39919 ft | 488 kts | 209° |
| 2026-05-07 21:13 | 43.28287 | -102.13427 | 39923 ft | 487 kts | 209° |
| 2026-05-07 21:13 | 43.22096 | -102.17229 | 39916 ft | 487 kts | 209° |
| 2026-05-07 21:14 | 43.15900 | -102.21030 | 39909 ft | 488 kts | 209° |
| 2026-05-07 21:14 | 43.09693 | -102.24830 | 39897 ft | 488 kts | 209° |
| 2026-05-07 21:15 | 43.03498 | -102.28615 | 39901 ft | 488 kts | 209° |
| 2026-05-07 21:15 | 42.97297 | -102.32395 | 39899 ft | 488 kts | 209° |
| 2026-05-07 21:16 | 42.91097 | -102.36167 | 39895 ft | 488 kts | 209° |
| 2026-05-07 21:16 | 42.84885 | -102.39938 | 39905 ft | 487 kts | 209° |
| 2026-05-07 21:17 | 42.78691 | -102.43689 | 39898 ft | 487 kts | 209° |
| 2026-05-07 21:17 | 42.72533 | -102.47411 | 39891 ft | 487 kts | 209° |
| 2026-05-07 21:18 | 42.66343 | -102.51143 | 39887 ft | 487 kts | 209° |
| 2026-05-07 21:18 | 42.60138 | -102.54877 | 39874 ft | 486 kts | 209° |
| 2026-05-07 21:19 | 42.53948 | -102.58593 | 39868 ft | 486 kts | 209° |
| 2026-05-07 21:19 | 42.47791 | -102.62281 | 39871 ft | 486 kts | 209° |
| 2026-05-07 21:20 | 42.41594 | -102.65985 | 39867 ft | 486 kts | 209° |
| 2026-05-07 21:20 | 42.35585 | -102.69570 | 39880 ft | 486 kts | 209° |
| 2026-05-07 21:21 | 42.29398 | -102.73254 | 39893 ft | 486 kts | 209° |
| 2026-05-07 21:21 | 42.23213 | -102.76927 | 39903 ft | 485 kts | 209° |
| 2026-05-07 21:22 | 42.17062 | -102.80573 | 39920 ft | 485 kts | 209° |
| 2026-05-07 21:22 | 42.10879 | -102.84229 | 39921 ft | 485 kts | 209° |
| 2026-05-07 21:23 | 42.04689 | -102.87883 | 39922 ft | 485 kts | 209° |
| 2026-05-07 21:23 | 41.98500 | -102.91527 | 39918 ft | 485 kts | 209° |
| 2026-05-07 21:24 | 41.92308 | -102.95164 | 39662 ft | 485 kts | 209° |
| 2026-05-07 21:24 | 41.89215 | -102.96977 | 39366 ft | 485 kts | 209° |
| 2026-05-07 21:24 | 41.86125 | -102.98789 | 39075 ft | 486 kts | 209° |
| 2026-05-07 21:25 | 41.83015 | -103.00611 | 38734 ft | 487 kts | 209° |
| 2026-05-07 21:25 | 41.80955 | -103.01817 | 38499 ft | 488 kts | 209° |
| 2026-05-07 21:25 | 41.77843 | -103.03636 | 38075 ft | 489 kts | 209° |
| 2026-05-07 21:25 | 41.74717 | -103.05462 | 37664 ft | 490 kts | 209° |
| 2026-05-07 21:26 | 41.71585 | -103.07289 | 37251 ft | 491 kts | 209° |
| 2026-05-07 21:26 | 41.68441 | -103.09121 | 36847 ft | 493 kts | 209° |
| 2026-05-07 21:26 | 41.65301 | -103.10948 | 36453 ft | 494 kts | 209° |
| 2026-05-07 21:26 | 41.62147 | -103.12782 | 36063 ft | 495 kts | 209° |
| 2026-05-07 21:27 | 41.57858 | -103.14984 | 35565 ft | 505 kts | 200° |
| 2026-05-07 21:27 | 41.55510 | -103.15523 | 35319 ft | 511 kts | 190° |
| 2026-05-07 21:27 | 41.51991 | -103.15748 | 34952 ft | 513 kts | 186° |
| 2026-05-07 21:27 | 41.48420 | -103.15841 | 34584 ft | 512 kts | 186° |
| 2026-05-07 21:28 | 41.44881 | -103.15937 | 34231 ft | 510 kts | 186° |
| 2026-05-07 21:28 | 41.41329 | -103.16047 | 33880 ft | 508 kts | 186° |
| 2026-05-07 21:28 | 41.37806 | -103.16167 | 33481 ft | 505 kts | 186° |
| 2026-05-07 21:28 | 41.34301 | -103.16291 | 33080 ft | 502 kts | 186° |
| 2026-05-07 21:29 | 41.30825 | -103.16421 | 32687 ft | 497 kts | 187° |
| 2026-05-07 21:29 | 41.27379 | -103.16549 | 32303 ft | 492 kts | 186° |
| 2026-05-07 21:29 | 41.23971 | -103.16671 | 31991 ft | 486 kts | 186° |
| 2026-05-07 21:29 | 41.20602 | -103.16793 | 31930 ft | 483 kts | 186° |
| 2026-05-07 21:30 | 41.17236 | -103.16917 | 31765 ft | 482 kts | 186° |
| 2026-05-07 21:30 | 41.13899 | -103.17041 | 31562 ft | 480 kts | 186° |
| 2026-05-07 21:30 | 41.10552 | -103.17165 | 31356 ft | 478 kts | 186° |
| 2026-05-07 21:30 | 41.07285 | -103.17345 | 31153 ft | 474 kts | 190° |
| 2026-05-07 21:31 | 41.04091 | -103.18178 | 30952 ft | 461 kts | 204° |
| 2026-05-07 21:31 | 41.01231 | -103.19937 | 30750 ft | 446 kts | 219° |
| 2026-05-07 21:31 | 40.98726 | -103.22300 | 30629 ft | 440 kts | 224° |
| 2026-05-07 21:31 | 40.96294 | -103.24778 | 30498 ft | 439 kts | 224° |
| 2026-05-07 21:32 | 40.93876 | -103.27243 | 30363 ft | 438 kts | 224° |
| 2026-05-07 21:32 | 40.91458 | -103.29693 | 30250 ft | 437 kts | 224° |
| 2026-05-07 21:32 | 40.89043 | -103.32132 | 30125 ft | 436 kts | 224° |
| 2026-05-07 21:32 | 40.86668 | -103.34523 | 30005 ft | 435 kts | 224° |
| 2026-05-07 21:33 | 40.81849 | -103.39361 | 29937 ft | 434 kts | 224° |
| 2026-05-07 21:33 | 40.77028 | -103.44189 | 29939 ft | 434 kts | 224° |
| 2026-05-07 21:34 | 40.72205 | -103.49010 | 29947 ft | 435 kts | 224° |
| 2026-05-07 21:34 | 40.67383 | -103.53821 | 29872 ft | 433 kts | 224° |
| 2026-05-07 21:35 | 40.64982 | -103.56210 | 29109 ft | 432 kts | 224° |
| 2026-05-07 21:35 | 40.62600 | -103.58586 | 28161 ft | 438 kts | 223° |
| 2026-05-07 21:35 | 40.60158 | -103.61018 | 27371 ft | 439 kts | 223° |
| 2026-05-07 21:35 | 40.57717 | -103.63442 | 26699 ft | 438 kts | 223° |
| 2026-05-07 21:36 | 40.55311 | -103.65824 | 25889 ft | 424 kts | 223° |
| 2026-05-07 21:36 | 40.52973 | -103.68132 | 24595 ft | 417 kts | 222° |
| 2026-05-07 21:36 | 40.50670 | -103.70411 | 23353 ft | 410 kts | 221° |
| 2026-05-07 21:36 | 40.48434 | -103.72623 | 22453 ft | 393 kts | 221° |
| 2026-05-07 21:37 | 40.46310 | -103.74803 | 21850 ft | 382 kts | 226° |
| 2026-05-07 21:37 | 40.44608 | -103.77350 | 21624 ft | 374 kts | 240° |
| 2026-05-07 21:37 | 40.43208 | -103.80247 | 21421 ft | 369 kts | 243° |
| 2026-05-07 21:37 | 40.41914 | -103.83095 | 21143 ft | 367 kts | 243° |
| 2026-05-07 21:38 | 40.40606 | -103.85976 | 20990 ft | 366 kts | 243° |
| 2026-05-07 21:38 | 40.39299 | -103.88842 | 20931 ft | 365 kts | 243° |
| 2026-05-07 21:38 | 40.38000 | -103.91677 | 20391 ft | 363 kts | 243° |
| 2026-05-07 21:38 | 40.36712 | -103.94480 | 20116 ft | 354 kts | 243° |
| 2026-05-07 21:39 | 40.35457 | -103.97202 | 19911 ft | 343 kts | 243° |
| 2026-05-07 21:39 | 40.34240 | -103.99839 | 19709 ft | 333 kts | 243° |
| 2026-05-07 21:39 | 40.33055 | -104.02408 | 19442 ft | 326 kts | 243° |
| 2026-05-07 21:39 | 40.31855 | -104.04916 | 19043 ft | 325 kts | 239° |
| 2026-05-07 21:40 | 40.30305 | -104.07094 | 18658 ft | 329 kts | 226° |
| 2026-05-07 21:40 | 40.28541 | -104.09016 | 18257 ft | 328 kts | 224° |
| 2026-05-07 21:40 | 40.26771 | -104.10879 | 17897 ft | 324 kts | 224° |
| 2026-05-07 21:40 | 40.25035 | -104.12714 | 17618 ft | 319 kts | 224° |
| 2026-05-07 21:41 | 40.23317 | -104.14539 | 17323 ft | 317 kts | 224° |
| 2026-05-07 21:41 | 40.21630 | -104.16336 | 17045 ft | 316 kts | 224° |
| 2026-05-07 21:41 | 40.19910 | -104.18125 | 16884 ft | 320 kts | 220° |
| 2026-05-07 21:41 | 40.17962 | -104.19815 | 16834 ft | 343 kts | 217° |
| 2026-05-07 21:42 | 40.15972 | -104.21448 | 16662 ft | 333 kts | 217° |
| 2026-05-07 21:42 | 40.14020 | -104.23020 | 16398 ft | 326 kts | 216° |
| 2026-05-07 21:42 | 40.12119 | -104.24541 | 16184 ft | 317 kts | 216° |
| 2026-05-07 21:42 | 40.10251 | -104.26031 | 15829 ft | 314 kts | 216° |
| 2026-05-07 21:43 | 40.08382 | -104.27522 | 15402 ft | 312 kts | 216° |
| 2026-05-07 21:43 | 40.06615 | -104.28930 | 14992 ft | 312 kts | 216° |
| 2026-05-07 21:43 | 40.05116 | -104.30121 | 14666 ft | 311 kts | 216° |
| 2026-05-07 21:43 | 40.03227 | -104.31621 | 14242 ft | 310 kts | 216° |
| 2026-05-07 21:44 | 40.01384 | -104.33085 | 13848 ft | 309 kts | 216° |
| 2026-05-07 21:44 | 39.99552 | -104.34538 | 13416 ft | 308 kts | 216° |
| 2026-05-07 21:44 | 39.97723 | -104.35981 | 12958 ft | 307 kts | 216° |
| 2026-05-07 21:44 | 39.95906 | -104.37417 | 12630 ft | 301 kts | 216° |
| 2026-05-07 21:45 | 39.94153 | -104.38798 | 12500 ft | 293 kts | 216° |
| 2026-05-07 21:45 | 39.92440 | -104.40147 | 12377 ft | 282 kts | 216° |
| 2026-05-07 21:45 | 39.90787 | -104.41446 | 12267 ft | 271 kts | 215° |
| 2026-05-07 21:45 | 39.89198 | -104.42692 | 12140 ft | 261 kts | 217° |
| 2026-05-07 21:46 | 39.87671 | -104.43898 | 12012 ft | 252 kts | 217° |
| 2026-05-07 21:46 | 39.86194 | -104.45065 | 11890 ft | 244 kts | 217° |
| 2026-05-07 21:46 | 39.84761 | -104.46196 | 11766 ft | 238 kts | 217° |
| 2026-05-07 21:46 | 39.83365 | -104.47296 | 11636 ft | 230 kts | 217° |
| 2026-05-07 21:47 | 39.82013 | -104.48361 | 11404 ft | 227 kts | 217° |
| 2026-05-07 21:47 | 39.80665 | -104.49401 | 11149 ft | 225 kts | 214° |
| 2026-05-07 21:47 | 39.79125 | -104.50064 | 11035 ft | 246 kts | 193° |
| 2026-05-07 21:47 | 39.77378 | -104.50187 | 11008 ft | 255 kts | 186° |
| 2026-05-07 21:48 | 39.75595 | -104.50170 | 11005 ft | 257 kts | 185° |
| 2026-05-07 21:48 | 39.73815 | -104.50146 | 10985 ft | 259 kts | 185° |
| 2026-05-07 21:48 | 39.72058 | -104.50127 | 10994 ft | 244 kts | 185° |
| 2026-05-07 21:48 | 39.70399 | -104.50113 | 11035 ft | 233 kts | 186° |
| 2026-05-07 21:49 | 39.68778 | -104.50111 | 10944 ft | 233 kts | 186° |
| 2026-05-07 21:49 | 39.67156 | -104.50115 | 10642 ft | 232 kts | 186° |
| 2026-05-07 21:49 | 39.65539 | -104.50123 | 10368 ft | 233 kts | 185° |
| 2026-05-07 21:49 | 39.63926 | -104.50192 | 10078 ft | 229 kts | 193° |
| 2026-05-07 21:50 | 39.62535 | -104.51013 | 9775 ft | 216 kts | 226° |
| 2026-05-07 21:50 | 39.61762 | -104.52585 | 9470 ft | 205 kts | 258° |
| 2026-05-07 21:50 | 39.61673 | -104.54396 | 9207 ft | 199 kts | 275° |
| 2026-05-07 21:50 | 39.61784 | -104.56162 | 9120 ft | 200 kts | 277° |
| 2026-05-07 21:51 | 39.61934 | -104.57960 | 9035 ft | 200 kts | 278° |
| 2026-05-07 21:51 | 39.62432 | -104.59593 | 8976 ft | 191 kts | 303° |
| 2026-05-07 21:51 | 39.63219 | -104.60961 | 8971 ft | 189 kts | 307° |
| 2026-05-07 21:51 | 39.64051 | -104.62283 | 8980 ft | 188 kts | 307° |
| 2026-05-07 21:52 | 39.64898 | -104.63574 | 8946 ft | 189 kts | 310° |
| 2026-05-07 21:52 | 39.66089 | -104.64333 | 8770 ft | 197 kts | 343° |
| 2026-05-07 21:52 | 39.67468 | -104.64411 | 8501 ft | 201 kts | 356° |
| 2026-05-07 21:52 | 39.68867 | -104.64329 | 8186 ft | 201 kts | 355° |
| 2026-05-07 21:53 | 39.70262 | -104.64307 | 7910 ft | 199 kts | 354° |
| 2026-05-07 21:53 | 39.71641 | -104.64300 | 7651 ft | 198 kts | 354° |
| 2026-05-07 21:53 | 39.73009 | -104.64282 | 7408 ft | 194 kts | 354° |
| 2026-05-07 21:53 | 39.74314 | -104.64263 | 7164 ft | 182 kts | 353° |
| 2026-05-07 21:54 | 39.75533 | -104.64249 | 6941 ft | 170 kts | 353° |
| 2026-05-07 21:54 | 39.76665 | -104.64238 | 6740 ft | 156 kts | 351° |
| 2026-05-07 21:54 | 39.77710 | -104.64226 | 6540 ft | 146 kts | 349° |
| 2026-05-07 21:54 | 39.78706 | -104.64217 | 6356 ft | 142 kts | 350° |
| 2026-05-07 21:55 | 39.79684 | -104.64207 | 6147 ft | 142 kts | 352° |
| 2026-05-07 21:55 | 39.80684 | -104.64197 | 5962 ft | 145 kts | 352° |
| 2026-05-07 21:55 | 39.81689 | -104.64182 | 5730 ft | 144 kts | 352° |
| 2026-05-07 21:55 | 39.82694 | -104.64163 | 5517 ft | 144 kts | 350° |
| 2026-05-07 21:56 | 39.83688 | -104.64157 | 5385 ft | 139 kts | 351° |
| 2026-05-07 21:56 | 39.84539 | -104.64156 | 5369 ft | 97 kts | 359° |
| 2026-05-07 21:56 | 39.85027 | -104.64150 | 5364 ft | 48 kts | 0° |
| 2026-05-07 21:56 | 39.85340 | -104.64147 | 5362 ft | 43 kts | 358° |
| 2026-05-07 21:57 | 39.85588 | -104.64218 | 5360 ft | 18 kts | 334° |
| 2026-05-07 21:57 | 39.85607 | -104.64231 | 5360 ft | 5 kts | 332° |
| 2026-05-07 21:57 | 39.85645 | -104.64263 | 5359 ft | 7 kts | 318° |
| 2026-05-07 21:57 | 39.85662 | -104.64326 | 5359 ft | 8 kts | 277° |
| 2026-05-07 21:58 | 39.85664 | -104.64403 | 5353 ft | 10 kts | 272° |
| 2026-05-07 21:58 | 39.85666 | -104.64508 | 5360 ft | 12 kts | 269° |
| 2026-05-07 21:58 | 39.85666 | -104.64618 | 5363 ft | 13 kts | 270° |
| 2026-05-07 21:58 | 39.85667 | -104.64748 | 5367 ft | 14 kts | 271° |
| 2026-05-07 21:59 | 39.85668 | -104.64866 | 5370 ft | 13 kts | 271° |
| 2026-05-07 21:59 | 39.85669 | -104.65013 | 5375 ft | 23 kts | 270° |
| 2026-05-07 21:59 | 39.85671 | -104.65270 | 5382 ft | 30 kts | 270° |
| 2026-05-07 21:59 | 39.85673 | -104.65547 | 5391 ft | 31 kts | 270° |
| 2026-05-07 22:00 | 39.85675 | -104.65770 | 5389 ft | 19 kts | 271° |
| 2026-05-07 22:00 | 39.85676 | -104.65917 | 5390 ft | 14 kts | 270° |
| 2026-05-07 22:00 | 39.85676 | -104.66034 | 5390 ft | 11 kts | 270° |
| 2026-05-07 22:00 | 39.85677 | -104.66120 | 5391 ft | 8 kts | 270° |
| 2026-05-07 22:01 | 39.85677 | -104.66185 | 5390 ft | 8 kts | 269° |
| 2026-05-07 22:01 | 39.85634 | -104.66232 | 5387 ft | 10 kts | 191° |
| 2026-05-07 22:01 | 39.85589 | -104.66280 | 5391 ft | 9 kts | 245° |
| 2026-05-07 22:01 | 39.85584 | -104.66366 | 5395 ft | 13 kts | 269° |
| 2026-05-07 22:02 | 39.85585 | -104.66493 | 5390 ft | 14 kts | 270° |
| 2026-05-07 22:02 | 39.85586 | -104.66616 | 5388 ft | 13 kts | 270° |
| 2026-05-07 22:02 | 39.85587 | -104.66732 | 5388 ft | 13 kts | 270° |
| 2026-05-07 22:02 | 39.85587 | -104.66853 | 5388 ft | 14 kts | 270° |
| 2026-05-07 22:03 | 39.85588 | -104.66974 | 5388 ft | 12 kts | 270° |
| 2026-05-07 22:03 | 39.85586 | -104.67050 | 5388 ft | 4 kts | 259° |
| 2026-05-07 22:03 | 39.85581 | -104.67073 | 5388 ft | 2 kts | 251° |
| 2026-05-07 22:03 | 39.85580 | -104.67074 | 5388 ft | 0 kts | 251° |
| 2026-05-07 22:04 | 39.85570 | -104.67112 | 5389 ft | 9 kts | 251° |
| 2026-05-07 22:04 | 39.85545 | -104.67170 | 5385 ft | 5 kts | 231° |
| 2026-05-07 22:05 | 39.85526 | -104.67191 | 5389 ft | 3 kts | 215° |
| 2026-05-07 22:05 | 39.85490 | -104.67208 | 5389 ft | 4 kts | 193° |
| 2026-05-07 22:05 | 39.85469 | -104.67214 | 5390 ft | 4 kts | 192° |
| 2026-05-07 22:05 | 39.85447 | -104.67220 | 5390 ft | 1 kts | 191° |
| 2026-05-07 22:06 | 39.85446 | -104.67220 | 5390 ft | 0 kts | 191° |